<?xml version='1.0' encoding='UTF-8'?><gpx version="1.1" creator="JPX - https://github.com/jenetics/jpx" xmlns="http://www.topografix.com/GPX/1/1"><trk><trkseg><trkpt lat="45.7587983" lon="8.600385"><ele>209.00000000000003</ele><time>2026-04-18T14:56:53.027Z</time></trkpt><trkpt lat="45.7588183" lon="8.6005183"><ele>209.0</ele><time>2026-04-18T14:56:55.04Z</time></trkpt><trkpt lat="45.75885" lon="8.6007067"><ele>209.0</ele><time>2026-04-18T14:56:58.022Z</time></trkpt><trkpt lat="45.7588533" lon="8.6008033"><ele>209.0</ele><time>2026-04-18T14:57:00.025Z</time></trkpt><trkpt lat="45.7587883" lon="8.6008483"><ele>209.00000000000003</ele><time>2026-04-18T14:57:03.025Z</time></trkpt><trkpt lat="45.7587217" lon="8.6008183"><ele>209.0</ele><time>2026-04-18T14:57:06.015Z</time></trkpt><trkpt lat="45.7585933" lon="8.60079"><ele>209.2</ele><time>2026-04-18T14:57:49.02Z</time></trkpt><trkpt lat="45.7585117" lon="8.6007617"><ele>209.39999999999998</ele><time>2026-04-18T14:57:52.043Z</time></trkpt><trkpt lat="45.7583833" lon="8.6006983"><ele>209.6</ele><time>2026-04-18T14:57:55.022Z</time></trkpt><trkpt lat="45.7583067" lon="8.6006767"><ele>209.8</ele><time>2026-04-18T14:57:57.031Z</time></trkpt><trkpt lat="45.7582367" lon="8.6006583"><ele>210.0</ele><time>2026-04-18T14:57:59.049Z</time></trkpt><trkpt lat="45.75814" lon="8.600625"><ele>210.0</ele><time>2026-04-18T14:58:01.028Z</time></trkpt><trkpt lat="45.758045" lon="8.6005883"><ele>210.0</ele><time>2026-04-18T14:58:03.021Z</time></trkpt><trkpt lat="45.7579483" lon="8.6005583"><ele>210.0</ele><time>2026-04-18T14:58:05.043Z</time></trkpt><trkpt lat="45.7578517" lon="8.60052"><ele>210.0</ele><time>2026-04-18T14:58:07.033Z</time></trkpt><trkpt lat="45.7577483" lon="8.6004833"><ele>210.0</ele><time>2026-04-18T14:58:09.039Z</time></trkpt><trkpt lat="45.757645" lon="8.600455"><ele>210.0</ele><time>2026-04-18T14:58:11.031Z</time></trkpt><trkpt lat="45.75754" lon="8.6004267"><ele>210.0</ele><time>2026-04-18T14:58:13.016Z</time></trkpt><trkpt lat="45.7574317" lon="8.6003883"><ele>210.0</ele><time>2026-04-18T14:58:15.021Z</time></trkpt><trkpt lat="45.7572774" lon="8.6003213"><ele>210.0</ele><time>2026-04-18T14:58:18.022Z</time></trkpt><trkpt lat="45.7571755" lon="8.6002746"><ele>210.0</ele><time>2026-04-18T14:58:20.023Z</time></trkpt><trkpt lat="45.7570691" lon="8.6002245"><ele>210.0</ele><time>2026-04-18T14:58:22.03Z</time></trkpt><trkpt lat="45.7569607" lon="8.6001734"><ele>210.0</ele><time>2026-04-18T14:58:24.036Z</time></trkpt><trkpt lat="45.7568544" lon="8.6001269"><ele>210.0</ele><time>2026-04-18T14:58:26.035Z</time></trkpt><trkpt lat="45.7567497" lon="8.600098"><ele>210.0</ele><time>2026-04-18T14:58:28.026Z</time></trkpt><trkpt lat="45.7566434" lon="8.600101"><ele>210.4</ele><time>2026-04-18T14:58:30.018Z</time></trkpt><trkpt lat="45.756534" lon="8.6001207"><ele>210.8</ele><time>2026-04-18T14:58:32.03Z</time></trkpt><trkpt lat="45.7564273" lon="8.6001555"><ele>211.2</ele><time>2026-04-18T14:58:34.03Z</time></trkpt><trkpt lat="45.7563283" lon="8.6002153"><ele>211.6</ele><time>2026-04-18T14:58:36.035Z</time></trkpt><trkpt lat="45.7562368" lon="8.6003042"><ele>212.0</ele><time>2026-04-18T14:58:38.036Z</time></trkpt><trkpt lat="45.7561521" lon="8.600417"><ele>213.75</ele><time>2026-04-18T14:58:40.034Z</time></trkpt><trkpt lat="45.7560667" lon="8.6005281"><ele>215.5</ele><time>2026-04-18T14:58:42.036Z</time></trkpt><trkpt lat="45.7559831" lon="8.6006437"><ele>217.25</ele><time>2026-04-18T14:58:44.034Z</time></trkpt><trkpt lat="45.7558929" lon="8.6007537"><ele>219.0</ele><time>2026-04-18T14:58:46.032Z</time></trkpt><trkpt lat="45.755795" lon="8.6008306"><ele>219.0</ele><time>2026-04-18T14:58:48.022Z</time></trkpt><trkpt lat="45.7556965" lon="8.6008669"><ele>219.0</ele><time>2026-04-18T14:58:50.033Z</time></trkpt><trkpt lat="45.7556115" lon="8.6008974"><ele>219.0</ele><time>2026-04-18T14:58:52.025Z</time></trkpt><trkpt lat="45.7555319" lon="8.6009383"><ele>219.0</ele><time>2026-04-18T14:58:54.022Z</time></trkpt><trkpt lat="45.7554499" lon="8.6009801"><ele>219.0</ele><time>2026-04-18T14:58:56.026Z</time></trkpt><trkpt lat="45.7553712" lon="8.6009583"><ele>219.0</ele><time>2026-04-18T14:58:59.034Z</time></trkpt><trkpt lat="45.7553175" lon="8.6008417"><ele>219.0</ele><time>2026-04-18T14:59:02.021Z</time></trkpt><trkpt lat="45.7552781" lon="8.600733"><ele>218.99999999999997</ele><time>2026-04-18T14:59:04.018Z</time></trkpt><trkpt lat="45.755211" lon="8.6006138"><ele>218.99999999999997</ele><time>2026-04-18T14:59:06.019Z</time></trkpt><trkpt lat="45.7551343" lon="8.6004983"><ele>219.0</ele><time>2026-04-18T14:59:08.029Z</time></trkpt><trkpt lat="45.7550601" lon="8.6004162"><ele>219.0</ele><time>2026-04-18T14:59:10.026Z</time></trkpt><trkpt lat="45.7549923" lon="8.6003473"><ele>219.39999999999998</ele><time>2026-04-18T14:59:12.016Z</time></trkpt><trkpt lat="45.7549231" lon="8.60026"><ele>219.79999999999998</ele><time>2026-04-18T14:59:14.05Z</time></trkpt><trkpt lat="45.7548365" lon="8.6001652"><ele>220.20000000000002</ele><time>2026-04-18T14:59:16.044Z</time></trkpt><trkpt lat="45.7547474" lon="8.6000682"><ele>220.60000000000002</ele><time>2026-04-18T14:59:18.028Z</time></trkpt><trkpt lat="45.7546952" lon="8.6000072"><ele>221.0</ele><time>2026-04-18T14:59:19.019Z</time></trkpt><trkpt lat="45.754637" lon="8.5999425"><ele>221.0</ele><time>2026-04-18T14:59:20.022Z</time></trkpt><trkpt lat="45.7545736" lon="8.5998798"><ele>221.00000000000003</ele><time>2026-04-18T14:59:21.016Z</time></trkpt><trkpt lat="45.7544943" lon="8.5998145"><ele>221.00000000000003</ele><time>2026-04-18T14:59:22.034Z</time></trkpt><trkpt lat="45.7544113" lon="8.5997401"><ele>221.0</ele><time>2026-04-18T14:59:23.031Z</time></trkpt><trkpt lat="45.7543266" lon="8.5996718"><ele>221.0</ele><time>2026-04-18T14:59:24.022Z</time></trkpt><trkpt lat="45.7542524" lon="8.5996001"><ele>220.20000000000002</ele><time>2026-04-18T14:59:25.088Z</time></trkpt><trkpt lat="45.7541886" lon="8.5995298"><ele>219.40000000000003</ele><time>2026-04-18T14:59:26.052Z</time></trkpt><trkpt lat="45.754129" lon="8.5994613"><ele>218.6</ele><time>2026-04-18T14:59:27.029Z</time></trkpt><trkpt lat="45.7540099" lon="8.5993207"><ele>217.8</ele><time>2026-04-18T14:59:29.03Z</time></trkpt><trkpt lat="45.7539555" lon="8.5992568"><ele>217.0</ele><time>2026-04-18T14:59:30.025Z</time></trkpt><trkpt lat="45.7538606" lon="8.5991505"><ele>217.0</ele><time>2026-04-18T14:59:32.034Z</time></trkpt><trkpt lat="45.7537666" lon="8.5990632"><ele>217.0</ele><time>2026-04-18T14:59:34.034Z</time></trkpt><trkpt lat="45.7536674" lon="8.5989845"><ele>217.0</ele><time>2026-04-18T14:59:36.023Z</time></trkpt><trkpt lat="45.7535895" lon="8.5989275"><ele>217.0</ele><time>2026-04-18T14:59:38.039Z</time></trkpt><trkpt lat="45.7535355" lon="8.59888"><ele>217.0</ele><time>2026-04-18T14:59:40.036Z</time></trkpt><trkpt lat="45.7534649" lon="8.5988282"><ele>219.6</ele><time>2026-04-18T14:59:43.024Z</time></trkpt><trkpt lat="45.7534029" lon="8.5988455"><ele>222.2</ele><time>2026-04-18T14:59:45.031Z</time></trkpt><trkpt lat="45.7533208" lon="8.5988784"><ele>224.8</ele><time>2026-04-18T14:59:47.045Z</time></trkpt><trkpt lat="45.7532125" lon="8.5989419"><ele>227.4</ele><time>2026-04-18T14:59:49.098Z</time></trkpt><trkpt lat="45.7530976" lon="8.5989952"><ele>230.0</ele><time>2026-04-18T14:59:51.054Z</time></trkpt><trkpt lat="45.7529987" lon="8.59903"><ele>230.0</ele><time>2026-04-18T14:59:53.031Z</time></trkpt><trkpt lat="45.7528774" lon="8.5990656"><ele>230.0</ele><time>2026-04-18T14:59:55.023Z</time></trkpt><trkpt lat="45.7527565" lon="8.5990943"><ele>230.0</ele><time>2026-04-18T14:59:57.031Z</time></trkpt><trkpt lat="45.7526573" lon="8.5990964"><ele>230.0</ele><time>2026-04-18T14:59:59.03Z</time></trkpt><trkpt lat="45.7525496" lon="8.599089"><ele>229.25</ele><time>2026-04-18T15:00:01.034Z</time></trkpt><trkpt lat="45.7524426" lon="8.5990889"><ele>228.5</ele><time>2026-04-18T15:00:03.022Z</time></trkpt><trkpt lat="45.7523286" lon="8.5991065"><ele>227.75</ele><time>2026-04-18T15:00:05.028Z</time></trkpt><trkpt lat="45.7522224" lon="8.5991393"><ele>227.0</ele><time>2026-04-18T15:00:07.039Z</time></trkpt><trkpt lat="45.7521045" lon="8.5991693"><ele>227.00000000000003</ele><time>2026-04-18T15:00:09.02Z</time></trkpt><trkpt lat="45.7520383" lon="8.5991907"><ele>227.0</ele><time>2026-04-18T15:00:10.032Z</time></trkpt><trkpt lat="45.7519662" lon="8.5992128"><ele>227.0</ele><time>2026-04-18T15:00:11.031Z</time></trkpt><trkpt lat="45.751893" lon="8.599235"><ele>227.0</ele><time>2026-04-18T15:00:12.068Z</time></trkpt><trkpt lat="45.7518213" lon="8.5992521"><ele>227.00000000000003</ele><time>2026-04-18T15:00:13.029Z</time></trkpt><trkpt lat="45.7517529" lon="8.5992656"><ele>227.0</ele><time>2026-04-18T15:00:14.034Z</time></trkpt><trkpt lat="45.7516465" lon="8.5992865"><ele>225.83333333333334</ele><time>2026-04-18T15:00:16.033Z</time></trkpt><trkpt lat="45.7515786" lon="8.5993121"><ele>224.66666666666669</ele><time>2026-04-18T15:00:18.027Z</time></trkpt><trkpt lat="45.7515125" lon="8.5993478"><ele>223.5</ele><time>2026-04-18T15:00:21.017Z</time></trkpt><trkpt lat="45.7514521" lon="8.5993946"><ele>222.33333333333331</ele><time>2026-04-18T15:00:25.022Z</time></trkpt><trkpt lat="45.7513967" lon="8.5994969"><ele>221.16666666666666</ele><time>2026-04-18T15:00:36.014Z</time></trkpt><trkpt lat="45.7513427" lon="8.5995712"><ele>220.0</ele><time>2026-04-18T15:00:38.027Z</time></trkpt><trkpt lat="45.7512863" lon="8.5996453"><ele>220.8</ele><time>2026-04-18T15:00:40.032Z</time></trkpt><trkpt lat="45.7512272" lon="8.5997258"><ele>221.6</ele><time>2026-04-18T15:00:42.044Z</time></trkpt><trkpt lat="45.7511585" lon="8.5997947"><ele>222.39999999999998</ele><time>2026-04-18T15:00:44.036Z</time></trkpt><trkpt lat="45.7510764" lon="8.5998725"><ele>223.2</ele><time>2026-04-18T15:00:46.019Z</time></trkpt><trkpt lat="45.751007" lon="8.5999567"><ele>224.0</ele><time>2026-04-18T15:00:48.031Z</time></trkpt><trkpt lat="45.7509334" lon="8.6000452"><ele>224.00000000000003</ele><time>2026-04-18T15:00:50.055Z</time></trkpt><trkpt lat="45.7508304" lon="8.6001435"><ele>224.0</ele><time>2026-04-18T15:00:53.022Z</time></trkpt><trkpt lat="45.750763" lon="8.6001715"><ele>224.0</ele><time>2026-04-18T15:00:55.02Z</time></trkpt><trkpt lat="45.7506881" lon="8.6001902"><ele>224.0</ele><time>2026-04-18T15:00:58.021Z</time></trkpt><trkpt lat="45.7506288" lon="8.6002358"><ele>224.00000000000003</ele><time>2026-04-18T15:01:00.058Z</time></trkpt><trkpt lat="45.7505588" lon="8.6002965"><ele>224.0</ele><time>2026-04-18T15:01:02.03Z</time></trkpt><trkpt lat="45.7504817" lon="8.6003722"><ele>225.00000000000003</ele><time>2026-04-18T15:01:04.033Z</time></trkpt><trkpt lat="45.7504327" lon="8.6004421"><ele>226.0</ele><time>2026-04-18T15:01:06.025Z</time></trkpt><trkpt lat="45.7503821" lon="8.6005245"><ele>227.0</ele><time>2026-04-18T15:01:09.029Z</time></trkpt><trkpt lat="45.7503365" lon="8.6006424"><ele>228.0</ele><time>2026-04-18T15:01:12.022Z</time></trkpt><trkpt lat="45.7503007" lon="8.6007567"><ele>229.00000000000003</ele><time>2026-04-18T15:01:15.046Z</time></trkpt><trkpt lat="45.7502097" lon="8.600787"><ele>230.0</ele><time>2026-04-18T15:01:18.022Z</time></trkpt><trkpt lat="45.7501305" lon="8.6007847"><ele>230.0</ele><time>2026-04-18T15:01:20.053Z</time></trkpt><trkpt lat="45.7500428" lon="8.6008326"><ele>230.0</ele><time>2026-04-18T15:01:22.031Z</time></trkpt><trkpt lat="45.7499587" lon="8.6008863"><ele>230.0</ele><time>2026-04-18T15:01:24.021Z</time></trkpt><trkpt lat="45.7498749" lon="8.600934"><ele>230.0</ele><time>2026-04-18T15:01:26.034Z</time></trkpt><trkpt lat="45.7497838" lon="8.6009755"><ele>230.0</ele><time>2026-04-18T15:01:28.021Z</time></trkpt><trkpt lat="45.7496792" lon="8.6010183"><ele>230.0</ele><time>2026-04-18T15:01:30.054Z</time></trkpt><trkpt lat="45.7495726" lon="8.6010601"><ele>230.0</ele><time>2026-04-18T15:01:32.032Z</time></trkpt><trkpt lat="45.7494799" lon="8.6011048"><ele>230.0</ele><time>2026-04-18T15:01:34.019Z</time></trkpt><trkpt lat="45.7493766" lon="8.6011465"><ele>230.0</ele><time>2026-04-18T15:01:36.03Z</time></trkpt><trkpt lat="45.7492525" lon="8.6011847"><ele>230.0</ele><time>2026-04-18T15:01:38.034Z</time></trkpt><trkpt lat="45.749188" lon="8.601203"><ele>232.8</ele><time>2026-04-18T15:01:39.018Z</time></trkpt><trkpt lat="45.7491249" lon="8.6012187"><ele>235.6</ele><time>2026-04-18T15:01:40.044Z</time></trkpt><trkpt lat="45.7490056" lon="8.6012581"><ele>238.39999999999998</ele><time>2026-04-18T15:01:42.027Z</time></trkpt><trkpt lat="45.7488912" lon="8.6013013"><ele>241.2</ele><time>2026-04-18T15:01:44.017Z</time></trkpt><trkpt lat="45.7487827" lon="8.6013343"><ele>244.0</ele><time>2026-04-18T15:01:46.058Z</time></trkpt><trkpt lat="45.7486601" lon="8.6013749"><ele>243.99999999999997</ele><time>2026-04-18T15:01:48.018Z</time></trkpt><trkpt lat="45.748591" lon="8.6013961"><ele>244.0</ele><time>2026-04-18T15:01:49.03Z</time></trkpt><trkpt lat="45.7484864" lon="8.6014479"><ele>244.0</ele><time>2026-04-18T15:01:51.037Z</time></trkpt><trkpt lat="45.7484209" lon="8.6014989"><ele>244.0</ele><time>2026-04-18T15:01:53.033Z</time></trkpt><trkpt lat="45.7483299" lon="8.6015053"><ele>243.99999999999997</ele><time>2026-04-18T15:01:56.028Z</time></trkpt><trkpt lat="45.7482705" lon="8.601438"><ele>244.0</ele><time>2026-04-18T15:01:58.027Z</time></trkpt><trkpt lat="45.7481915" lon="8.6013811"><ele>243.79999999999998</ele><time>2026-04-18T15:02:00.023Z</time></trkpt><trkpt lat="45.748094" lon="8.6013317"><ele>243.59999999999997</ele><time>2026-04-18T15:02:02.047Z</time></trkpt><trkpt lat="45.7479851" lon="8.6013002"><ele>243.4</ele><time>2026-04-18T15:02:04.013Z</time></trkpt><trkpt lat="45.7478822" lon="8.601294"><ele>243.2</ele><time>2026-04-18T15:02:06.022Z</time></trkpt><trkpt lat="45.7478101" lon="8.6012889"><ele>243.0</ele><time>2026-04-18T15:02:09.026Z</time></trkpt><trkpt lat="45.7477437" lon="8.6013126"><ele>242.4</ele><time>2026-04-18T15:02:20.018Z</time></trkpt><trkpt lat="45.7476634" lon="8.6013328"><ele>241.8</ele><time>2026-04-18T15:02:22.064Z</time></trkpt><trkpt lat="45.7475755" lon="8.6013696"><ele>241.2</ele><time>2026-04-18T15:02:24.024Z</time></trkpt><trkpt lat="45.7474737" lon="8.6013945"><ele>240.6</ele><time>2026-04-18T15:02:26.027Z</time></trkpt><trkpt lat="45.7473655" lon="8.6014103"><ele>240.0</ele><time>2026-04-18T15:02:28.09Z</time></trkpt><trkpt lat="45.7472602" lon="8.6014432"><ele>240.0</ele><time>2026-04-18T15:02:30.034Z</time></trkpt><trkpt lat="45.7471684" lon="8.6014703"><ele>240.0</ele><time>2026-04-18T15:02:32.02Z</time></trkpt><trkpt lat="45.7470738" lon="8.6014597"><ele>240.0</ele><time>2026-04-18T15:02:34.025Z</time></trkpt><trkpt lat="45.7469664" lon="8.601425"><ele>240.0</ele><time>2026-04-18T15:02:36.073Z</time></trkpt><trkpt lat="45.7468537" lon="8.6013834"><ele>240.0</ele><time>2026-04-18T15:02:38.037Z</time></trkpt><trkpt lat="45.7467574" lon="8.6013345"><ele>237.6</ele><time>2026-04-18T15:02:40.023Z</time></trkpt><trkpt lat="45.7466662" lon="8.6013031"><ele>235.2</ele><time>2026-04-18T15:02:42.016Z</time></trkpt><trkpt lat="45.7465632" lon="8.6012748"><ele>232.8</ele><time>2026-04-18T15:02:44.034Z</time></trkpt><trkpt lat="45.7464562" lon="8.6012533"><ele>230.4</ele><time>2026-04-18T15:02:46.036Z</time></trkpt><trkpt lat="45.7463584" lon="8.6012733"><ele>228.0</ele><time>2026-04-18T15:02:48.054Z</time></trkpt><trkpt lat="45.7462526" lon="8.6013114"><ele>228.0</ele><time>2026-04-18T15:02:50.027Z</time></trkpt><trkpt lat="45.746142" lon="8.60135"><ele>228.0</ele><time>2026-04-18T15:02:52.038Z</time></trkpt><trkpt lat="45.7460299" lon="8.6013985"><ele>228.0</ele><time>2026-04-18T15:02:54.036Z</time></trkpt><trkpt lat="45.7459094" lon="8.6014349"><ele>228.0</ele><time>2026-04-18T15:02:56.054Z</time></trkpt><trkpt lat="45.7458071" lon="8.6014631"><ele>227.8</ele><time>2026-04-18T15:02:58.018Z</time></trkpt><trkpt lat="45.7456847" lon="8.601462"><ele>227.60000000000002</ele><time>2026-04-18T15:03:00.037Z</time></trkpt><trkpt lat="45.7456213" lon="8.601465"><ele>227.39999999999998</ele><time>2026-04-18T15:03:01.027Z</time></trkpt><trkpt lat="45.7454965" lon="8.6014603"><ele>227.2</ele><time>2026-04-18T15:03:03.024Z</time></trkpt><trkpt lat="45.7453877" lon="8.6014576"><ele>227.0</ele><time>2026-04-18T15:03:05.029Z</time></trkpt><trkpt lat="45.7452919" lon="8.6014772"><ele>225.66666666666669</ele><time>2026-04-18T15:03:07.027Z</time></trkpt><trkpt lat="45.745201" lon="8.6015059"><ele>224.33333333333334</ele><time>2026-04-18T15:03:09.032Z</time></trkpt><trkpt lat="45.7450881" lon="8.6015497"><ele>223.0</ele><time>2026-04-18T15:03:11.028Z</time></trkpt><trkpt lat="45.7450228" lon="8.6015782"><ele>221.66666666666669</ele><time>2026-04-18T15:03:12.05Z</time></trkpt><trkpt lat="45.7449578" lon="8.6016117"><ele>220.33333333333334</ele><time>2026-04-18T15:03:13.034Z</time></trkpt><trkpt lat="45.7448946" lon="8.6016504"><ele>219.0</ele><time>2026-04-18T15:03:14.047Z</time></trkpt><trkpt lat="45.7448317" lon="8.6016894"><ele>219.0</ele><time>2026-04-18T15:03:15.022Z</time></trkpt><trkpt lat="45.7447714" lon="8.6017293"><ele>218.99999999999997</ele><time>2026-04-18T15:03:16.035Z</time></trkpt><trkpt lat="45.7446622" lon="8.601801"><ele>218.99999999999997</ele><time>2026-04-18T15:03:18.027Z</time></trkpt><trkpt lat="45.7445635" lon="8.6018617"><ele>219.0</ele><time>2026-04-18T15:03:20.022Z</time></trkpt><trkpt lat="45.7444583" lon="8.6019176"><ele>219.0</ele><time>2026-04-18T15:03:22.029Z</time></trkpt><trkpt lat="45.7443551" lon="8.6019775"><ele>220.0</ele><time>2026-04-18T15:03:24.023Z</time></trkpt><trkpt lat="45.7442519" lon="8.6020457"><ele>221.0</ele><time>2026-04-18T15:03:26.051Z</time></trkpt><trkpt lat="45.7441565" lon="8.6021224"><ele>222.0</ele><time>2026-04-18T15:03:28.038Z</time></trkpt><trkpt lat="45.744073" lon="8.6022281"><ele>223.0</ele><time>2026-04-18T15:03:30.034Z</time></trkpt><trkpt lat="45.7439879" lon="8.6023458"><ele>223.0</ele><time>2026-04-18T15:03:32.021Z</time></trkpt><trkpt lat="45.7438919" lon="8.602458"><ele>223.0</ele><time>2026-04-18T15:03:34.041Z</time></trkpt><trkpt lat="45.7437933" lon="8.602549"><ele>223.0</ele><time>2026-04-18T15:03:36.034Z</time></trkpt><trkpt lat="45.743723" lon="8.6025914"><ele>223.0</ele><time>2026-04-18T15:03:38.023Z</time></trkpt><trkpt lat="45.7436614" lon="8.6026193"><ele>223.0</ele><time>2026-04-18T15:03:41.031Z</time></trkpt><trkpt lat="45.7435846" lon="8.6026644"><ele>221.83333333333331</ele><time>2026-04-18T15:03:44.053Z</time></trkpt><trkpt lat="45.7435062" lon="8.6027008"><ele>220.66666666666666</ele><time>2026-04-18T15:03:46.035Z</time></trkpt><trkpt lat="45.7434311" lon="8.6027472"><ele>219.5</ele><time>2026-04-18T15:03:48.018Z</time></trkpt><trkpt lat="45.743356" lon="8.6028078"><ele>218.33333333333331</ele><time>2026-04-18T15:03:50.016Z</time></trkpt><trkpt lat="45.7432821" lon="8.6028567"><ele>217.16666666666666</ele><time>2026-04-18T15:03:52.025Z</time></trkpt><trkpt lat="45.7432133" lon="8.6028758"><ele>216.0</ele><time>2026-04-18T15:03:54.026Z</time></trkpt><trkpt lat="45.7431401" lon="8.6028666"><ele>218.33333333333334</ele><time>2026-04-18T15:03:56.037Z</time></trkpt><trkpt lat="45.7430736" lon="8.602863"><ele>220.66666666666669</ele><time>2026-04-18T15:03:59.024Z</time></trkpt><trkpt lat="45.7430281" lon="8.6029454"><ele>223.0</ele><time>2026-04-18T15:04:02.049Z</time></trkpt><trkpt lat="45.742976" lon="8.6030262"><ele>225.33333333333334</ele><time>2026-04-18T15:04:05.026Z</time></trkpt><trkpt lat="45.7429309" lon="8.6030952"><ele>227.66666666666669</ele><time>2026-04-18T15:04:07.034Z</time></trkpt><trkpt lat="45.7428705" lon="8.6031832"><ele>230.0</ele><time>2026-04-18T15:04:10.05Z</time></trkpt><trkpt lat="45.7428143" lon="8.6032668"><ele>230.0</ele><time>2026-04-18T15:04:13.02Z</time></trkpt><trkpt lat="45.7427669" lon="8.6033395"><ele>230.0</ele><time>2026-04-18T15:04:15.018Z</time></trkpt><trkpt lat="45.7427069" lon="8.6034168"><ele>230.0</ele><time>2026-04-18T15:04:17.024Z</time></trkpt><trkpt lat="45.7426273" lon="8.6035155"><ele>230.0</ele><time>2026-04-18T15:04:19.021Z</time></trkpt><trkpt lat="45.7425392" lon="8.6036151"><ele>230.0</ele><time>2026-04-18T15:04:21.016Z</time></trkpt><trkpt lat="45.7424454" lon="8.603731"><ele>230.83333333333334</ele><time>2026-04-18T15:04:23.023Z</time></trkpt><trkpt lat="45.742351" lon="8.6038481"><ele>231.66666666666669</ele><time>2026-04-18T15:04:25.049Z</time></trkpt><trkpt lat="45.7423011" lon="8.6039074"><ele>232.5</ele><time>2026-04-18T15:04:26.025Z</time></trkpt><trkpt lat="45.7422532" lon="8.6039704"><ele>233.33333333333331</ele><time>2026-04-18T15:04:27.023Z</time></trkpt><trkpt lat="45.7422043" lon="8.6040306"><ele>234.16666666666666</ele><time>2026-04-18T15:04:28.033Z</time></trkpt><trkpt lat="45.7421492" lon="8.6040886"><ele>235.0</ele><time>2026-04-18T15:04:29.027Z</time></trkpt><trkpt lat="45.7420916" lon="8.6041464"><ele>235.0</ele><time>2026-04-18T15:04:30.041Z</time></trkpt><trkpt lat="45.7420321" lon="8.6042025"><ele>234.99999999999997</ele><time>2026-04-18T15:04:31.031Z</time></trkpt><trkpt lat="45.7419742" lon="8.604261"><ele>235.0</ele><time>2026-04-18T15:04:32.024Z</time></trkpt><trkpt lat="45.7419197" lon="8.6043235"><ele>235.0</ele><time>2026-04-18T15:04:33.02Z</time></trkpt><trkpt lat="45.7418661" lon="8.6043873"><ele>234.99999999999997</ele><time>2026-04-18T15:04:34.023Z</time></trkpt><trkpt lat="45.7418128" lon="8.6044482"><ele>235.0</ele><time>2026-04-18T15:04:35.014Z</time></trkpt><trkpt lat="45.7417621" lon="8.604504"><ele>235.0</ele><time>2026-04-18T15:04:36.022Z</time></trkpt><trkpt lat="45.7416677" lon="8.6046139"><ele>235.16666666666666</ele><time>2026-04-18T15:04:38.022Z</time></trkpt><trkpt lat="45.7415774" lon="8.6047292"><ele>235.33333333333331</ele><time>2026-04-18T15:04:40.043Z</time></trkpt><trkpt lat="45.7415302" lon="8.604789"><ele>235.5</ele><time>2026-04-18T15:04:41.033Z</time></trkpt><trkpt lat="45.7414818" lon="8.6048519"><ele>235.66666666666669</ele><time>2026-04-18T15:04:42.016Z</time></trkpt><trkpt lat="45.7414318" lon="8.6049209"><ele>235.83333333333334</ele><time>2026-04-18T15:04:43.031Z</time></trkpt><trkpt lat="45.7413798" lon="8.6049909"><ele>236.0</ele><time>2026-04-18T15:04:44.032Z</time></trkpt><trkpt lat="45.7413253" lon="8.6050641"><ele>236.00000000000003</ele><time>2026-04-18T15:04:45.041Z</time></trkpt><trkpt lat="45.7412723" lon="8.6051346"><ele>236.0</ele><time>2026-04-18T15:04:46.027Z</time></trkpt><trkpt lat="45.7412203" lon="8.6052046"><ele>236.0</ele><time>2026-04-18T15:04:47.027Z</time></trkpt><trkpt lat="45.7411691" lon="8.6052747"><ele>236.0</ele><time>2026-04-18T15:04:48.012Z</time></trkpt><trkpt lat="45.7411136" lon="8.6053412"><ele>236.00000000000003</ele><time>2026-04-18T15:04:49.025Z</time></trkpt><trkpt lat="45.7410602" lon="8.6054005"><ele>236.0</ele><time>2026-04-18T15:04:50.03Z</time></trkpt><trkpt lat="45.7409606" lon="8.6055004"><ele>234.75</ele><time>2026-04-18T15:04:52.026Z</time></trkpt><trkpt lat="45.7408706" lon="8.6056007"><ele>233.5</ele><time>2026-04-18T15:04:54.026Z</time></trkpt><trkpt lat="45.7407879" lon="8.6057058"><ele>232.25</ele><time>2026-04-18T15:04:56.016Z</time></trkpt><trkpt lat="45.7406905" lon="8.6057858"><ele>231.0</ele><time>2026-04-18T15:04:58.086Z</time></trkpt><trkpt lat="45.7405848" lon="8.6058448"><ele>231.0</ele><time>2026-04-18T15:05:00.055Z</time></trkpt><trkpt lat="45.7404647" lon="8.6058996"><ele>231.0</ele><time>2026-04-18T15:05:02.021Z</time></trkpt><trkpt lat="45.740404" lon="8.6059334"><ele>231.0</ele><time>2026-04-18T15:05:03.025Z</time></trkpt><trkpt lat="45.7403441" lon="8.6059704"><ele>231.0</ele><time>2026-04-18T15:05:04.034Z</time></trkpt><trkpt lat="45.7402863" lon="8.6060075"><ele>231.0</ele><time>2026-04-18T15:05:05.018Z</time></trkpt><trkpt lat="45.7401845" lon="8.6060774"><ele>231.0</ele><time>2026-04-18T15:05:07.028Z</time></trkpt><trkpt lat="45.7400944" lon="8.6061363"><ele>231.66666666666666</ele><time>2026-04-18T15:05:09.016Z</time></trkpt><trkpt lat="45.7399958" lon="8.6062198"><ele>232.33333333333331</ele><time>2026-04-18T15:05:11.024Z</time></trkpt><trkpt lat="45.7399377" lon="8.6062764"><ele>233.0</ele><time>2026-04-18T15:05:12.023Z</time></trkpt><trkpt lat="45.7398771" lon="8.6063348"><ele>233.66666666666666</ele><time>2026-04-18T15:05:13.028Z</time></trkpt><trkpt lat="45.7398149" lon="8.6063872"><ele>234.33333333333331</ele><time>2026-04-18T15:05:14.024Z</time></trkpt><trkpt lat="45.7397531" lon="8.6064333"><ele>235.0</ele><time>2026-04-18T15:05:15.021Z</time></trkpt><trkpt lat="45.7396918" lon="8.6064755"><ele>234.99999999999997</ele><time>2026-04-18T15:05:16.052Z</time></trkpt><trkpt lat="45.739629" lon="8.6065145"><ele>235.0</ele><time>2026-04-18T15:05:17.03Z</time></trkpt><trkpt lat="45.7394922" lon="8.6065898"><ele>235.0</ele><time>2026-04-18T15:05:19.029Z</time></trkpt><trkpt lat="45.7394229" lon="8.6066281"><ele>235.0</ele><time>2026-04-18T15:05:20.029Z</time></trkpt><trkpt lat="45.7393543" lon="8.606662"><ele>234.99999999999997</ele><time>2026-04-18T15:05:21.016Z</time></trkpt><trkpt lat="45.7392846" lon="8.6066892"><ele>235.0</ele><time>2026-04-18T15:05:22.034Z</time></trkpt><trkpt lat="45.7392214" lon="8.6067108"><ele>232.99999999999997</ele><time>2026-04-18T15:05:23.028Z</time></trkpt><trkpt lat="45.7391189" lon="8.6067451"><ele>231.0</ele><time>2026-04-18T15:05:25.02Z</time></trkpt><trkpt lat="45.7390319" lon="8.6067718"><ele>229.0</ele><time>2026-04-18T15:05:27.026Z</time></trkpt><trkpt lat="45.7389678" lon="8.6067945"><ele>227.0</ele><time>2026-04-18T15:05:30.022Z</time></trkpt><trkpt lat="45.7389003" lon="8.6068598"><ele>224.99999999999997</ele><time>2026-04-18T15:05:35.032Z</time></trkpt><trkpt lat="45.7388138" lon="8.606892"><ele>223.0</ele><time>2026-04-18T15:05:37.019Z</time></trkpt><trkpt lat="45.7386982" lon="8.6069234"><ele>222.99999999999997</ele><time>2026-04-18T15:05:39.014Z</time></trkpt><trkpt lat="45.7385797" lon="8.6069521"><ele>223.0</ele><time>2026-04-18T15:05:41.032Z</time></trkpt><trkpt lat="45.7384903" lon="8.6069713"><ele>223.0</ele><time>2026-04-18T15:05:43.027Z</time></trkpt><trkpt lat="45.7384008" lon="8.606994"><ele>223.0</ele><time>2026-04-18T15:05:46.022Z</time></trkpt><trkpt lat="45.7383289" lon="8.6070176"><ele>222.99999999999997</ele><time>2026-04-18T15:05:48.034Z</time></trkpt><trkpt lat="45.7382577" lon="8.6070236"><ele>223.0</ele><time>2026-04-18T15:05:50.03Z</time></trkpt><trkpt lat="45.7381833" lon="8.607035"><ele>222.99999999999997</ele><time>2026-04-18T15:06:16.031Z</time></trkpt><trkpt lat="45.738265" lon="8.6070483"><ele>223.0</ele><time>2026-04-18T15:06:57.014Z</time></trkpt><trkpt lat="45.73835" lon="8.6070417"><ele>223.0</ele><time>2026-04-18T15:07:00.033Z</time></trkpt><trkpt lat="45.738435" lon="8.6070033"><ele>223.0</ele><time>2026-04-18T15:07:02.026Z</time></trkpt><trkpt lat="45.7385133" lon="8.6069617"><ele>222.99999999999997</ele><time>2026-04-18T15:07:04.028Z</time></trkpt><trkpt lat="45.7386" lon="8.6069383"><ele>223.0</ele><time>2026-04-18T15:07:06.04Z</time></trkpt><trkpt lat="45.738685" lon="8.60691"><ele>222.99999999999997</ele><time>2026-04-18T15:07:08.033Z</time></trkpt><trkpt lat="45.7387733" lon="8.6068933"><ele>223.0</ele><time>2026-04-18T15:07:10.02Z</time></trkpt><trkpt lat="45.7388433" lon="8.60687"><ele>223.0</ele><time>2026-04-18T15:07:12.027Z</time></trkpt><trkpt lat="45.738895" lon="8.6068167"><ele>223.0</ele><time>2026-04-18T15:07:15.026Z</time></trkpt><trkpt lat="45.7389833" lon="8.6067717"><ele>222.99999999999997</ele><time>2026-04-18T15:07:25.021Z</time></trkpt><trkpt lat="45.7390733" lon="8.6067433"><ele>223.0</ele><time>2026-04-18T15:07:27.028Z</time></trkpt><trkpt lat="45.7391717" lon="8.60671"><ele>223.0</ele><time>2026-04-18T15:07:29.022Z</time></trkpt><trkpt lat="45.7392733" lon="8.60668"><ele>223.0</ele><time>2026-04-18T15:07:31.04Z</time></trkpt><trkpt lat="45.7393767" lon="8.6066417"><ele>223.0</ele><time>2026-04-18T15:07:33.019Z</time></trkpt><trkpt lat="45.7394833" lon="8.6065933"><ele>223.0</ele><time>2026-04-18T15:07:35.026Z</time></trkpt><trkpt lat="45.7395983" lon="8.606535"><ele>223.0</ele><time>2026-04-18T15:07:37.028Z</time></trkpt><trkpt lat="45.739708" lon="8.6064654"><ele>222.8</ele><time>2026-04-18T15:07:39.048Z</time></trkpt><trkpt lat="45.7398079" lon="8.6063904"><ele>222.60000000000002</ele><time>2026-04-18T15:07:41.057Z</time></trkpt><trkpt lat="45.7399032" lon="8.6063053"><ele>222.39999999999998</ele><time>2026-04-18T15:07:43.054Z</time></trkpt><trkpt lat="45.7399832" lon="8.6061989"><ele>222.2</ele><time>2026-04-18T15:07:45.019Z</time></trkpt><trkpt lat="45.7400705" lon="8.6061157"><ele>222.0</ele><time>2026-04-18T15:07:47.026Z</time></trkpt><trkpt lat="45.7401612" lon="8.6060545"><ele>224.25</ele><time>2026-04-18T15:07:49.03Z</time></trkpt><trkpt lat="45.7402614" lon="8.605974"><ele>226.5</ele><time>2026-04-18T15:07:51.028Z</time></trkpt><trkpt lat="45.7403648" lon="8.6058922"><ele>228.75</ele><time>2026-04-18T15:07:53.028Z</time></trkpt><trkpt lat="45.7404721" lon="8.6058296"><ele>231.0</ele><time>2026-04-18T15:07:55.021Z</time></trkpt><trkpt lat="45.7405747" lon="8.605792"><ele>231.0</ele><time>2026-04-18T15:07:57.033Z</time></trkpt><trkpt lat="45.7406487" lon="8.6057678"><ele>231.0</ele><time>2026-04-18T15:08:00.043Z</time></trkpt><trkpt lat="45.7407246" lon="8.6057205"><ele>231.0</ele><time>2026-04-18T15:08:03.027Z</time></trkpt><trkpt lat="45.7408051" lon="8.605658"><ele>231.0</ele><time>2026-04-18T15:08:06.032Z</time></trkpt><trkpt lat="45.7408538" lon="8.6055911"><ele>231.0</ele><time>2026-04-18T15:08:08.016Z</time></trkpt><trkpt lat="45.7409256" lon="8.6055061"><ele>231.0</ele><time>2026-04-18T15:08:10.065Z</time></trkpt><trkpt lat="45.7410211" lon="8.6054074"><ele>231.71428571428572</ele><time>2026-04-18T15:08:12.067Z</time></trkpt><trkpt lat="45.7410715" lon="8.6053488"><ele>232.42857142857144</ele><time>2026-04-18T15:08:13.014Z</time></trkpt><trkpt lat="45.7411266" lon="8.6052815"><ele>233.14285714285714</ele><time>2026-04-18T15:08:14.018Z</time></trkpt><trkpt lat="45.7411848" lon="8.6052112"><ele>233.85714285714286</ele><time>2026-04-18T15:08:15.032Z</time></trkpt><trkpt lat="45.7412439" lon="8.6051382"><ele>234.57142857142858</ele><time>2026-04-18T15:08:16.039Z</time></trkpt><trkpt lat="45.741302" lon="8.6050667"><ele>235.28571428571428</ele><time>2026-04-18T15:08:17.035Z</time></trkpt><trkpt lat="45.7413602" lon="8.6049927"><ele>236.0</ele><time>2026-04-18T15:08:18.015Z</time></trkpt><trkpt lat="45.7414193" lon="8.6049116"><ele>236.00000000000003</ele><time>2026-04-18T15:08:19.057Z</time></trkpt><trkpt lat="45.7414754" lon="8.604837"><ele>236.0</ele><time>2026-04-18T15:08:20.03Z</time></trkpt><trkpt lat="45.7415334" lon="8.6047606"><ele>236.0</ele><time>2026-04-18T15:08:21.019Z</time></trkpt><trkpt lat="45.7415943" lon="8.6046827"><ele>236.0</ele><time>2026-04-18T15:08:22.041Z</time></trkpt><trkpt lat="45.7416559" lon="8.6046081"><ele>236.00000000000003</ele><time>2026-04-18T15:08:23.025Z</time></trkpt><trkpt lat="45.7417179" lon="8.6045333"><ele>236.0</ele><time>2026-04-18T15:08:24.039Z</time></trkpt><trkpt lat="45.7417807" lon="8.6044611"><ele>235.83333333333334</ele><time>2026-04-18T15:08:25.019Z</time></trkpt><trkpt lat="45.7418456" lon="8.6043888"><ele>235.66666666666669</ele><time>2026-04-18T15:08:26.017Z</time></trkpt><trkpt lat="45.7419115" lon="8.6043121"><ele>235.5</ele><time>2026-04-18T15:08:27.02Z</time></trkpt><trkpt lat="45.7419775" lon="8.604234"><ele>235.33333333333331</ele><time>2026-04-18T15:08:28.041Z</time></trkpt><trkpt lat="45.7420432" lon="8.604154"><ele>235.16666666666666</ele><time>2026-04-18T15:08:29.037Z</time></trkpt><trkpt lat="45.7421099" lon="8.6040753"><ele>235.0</ele><time>2026-04-18T15:08:30.053Z</time></trkpt><trkpt lat="45.7421745" lon="8.6040025"><ele>234.99999999999997</ele><time>2026-04-18T15:08:31.02Z</time></trkpt><trkpt lat="45.7422386" lon="8.6039277"><ele>235.0</ele><time>2026-04-18T15:08:32.027Z</time></trkpt><trkpt lat="45.7422973" lon="8.6038528"><ele>235.0</ele><time>2026-04-18T15:08:33.03Z</time></trkpt><trkpt lat="45.7423572" lon="8.6037795"><ele>235.0</ele><time>2026-04-18T15:08:34.035Z</time></trkpt><trkpt lat="45.7424175" lon="8.6037103"><ele>234.99999999999997</ele><time>2026-04-18T15:08:35.031Z</time></trkpt><trkpt lat="45.7424794" lon="8.6036425"><ele>235.0</ele><time>2026-04-18T15:08:36.059Z</time></trkpt><trkpt lat="45.7425411" lon="8.6035748"><ele>234.28571428571428</ele><time>2026-04-18T15:08:37.03Z</time></trkpt><trkpt lat="45.7426045" lon="8.6035068"><ele>233.57142857142856</ele><time>2026-04-18T15:08:38.022Z</time></trkpt><trkpt lat="45.7426629" lon="8.603438"><ele>232.85714285714283</ele><time>2026-04-18T15:08:39.03Z</time></trkpt><trkpt lat="45.7427155" lon="8.6033653"><ele>232.1428571428571</ele><time>2026-04-18T15:08:40.05Z</time></trkpt><trkpt lat="45.7427633" lon="8.6032843"><ele>231.42857142857142</ele><time>2026-04-18T15:08:41.022Z</time></trkpt><trkpt lat="45.7428123" lon="8.6032034"><ele>230.71428571428567</ele><time>2026-04-18T15:08:42.047Z</time></trkpt><trkpt lat="45.7428578" lon="8.6031274"><ele>229.99999999999997</ele><time>2026-04-18T15:08:43.014Z</time></trkpt><trkpt lat="45.7429035" lon="8.6030565"><ele>230.0</ele><time>2026-04-18T15:08:44.02Z</time></trkpt><trkpt lat="45.7429748" lon="8.6029504"><ele>230.0</ele><time>2026-04-18T15:08:46.044Z</time></trkpt><trkpt lat="45.7430277" lon="8.6028705"><ele>230.0</ele><time>2026-04-18T15:08:49.055Z</time></trkpt><trkpt lat="45.7431085" lon="8.6028489"><ele>230.0</ele><time>2026-04-18T15:08:52.038Z</time></trkpt><trkpt lat="45.7431882" lon="8.6028475"><ele>230.0</ele><time>2026-04-18T15:08:54.048Z</time></trkpt><trkpt lat="45.743296" lon="8.602796"><ele>228.83333333333334</ele><time>2026-04-18T15:08:56.034Z</time></trkpt><trkpt lat="45.7433637" lon="8.6027597"><ele>227.66666666666669</ele><time>2026-04-18T15:08:57.02Z</time></trkpt><trkpt lat="45.7434386" lon="8.6027179"><ele>226.5</ele><time>2026-04-18T15:08:58.038Z</time></trkpt><trkpt lat="45.7435121" lon="8.6026747"><ele>225.33333333333331</ele><time>2026-04-18T15:08:59.018Z</time></trkpt><trkpt lat="45.7435837" lon="8.6026406"><ele>224.16666666666666</ele><time>2026-04-18T15:09:00.039Z</time></trkpt><trkpt lat="45.7436865" lon="8.6025993"><ele>223.0</ele><time>2026-04-18T15:09:02.019Z</time></trkpt><trkpt lat="45.7437706" lon="8.6025454"><ele>222.99999999999997</ele><time>2026-04-18T15:09:04.035Z</time></trkpt><trkpt lat="45.7438607" lon="8.6024641"><ele>223.0</ele><time>2026-04-18T15:09:06.039Z</time></trkpt><trkpt lat="45.7439537" lon="8.6023556"><ele>223.0</ele><time>2026-04-18T15:09:08.028Z</time></trkpt><trkpt lat="45.7440017" lon="8.6022957"><ele>223.0</ele><time>2026-04-18T15:09:09.016Z</time></trkpt><trkpt lat="45.7440533" lon="8.6022287"><ele>222.99999999999997</ele><time>2026-04-18T15:09:10.046Z</time></trkpt><trkpt lat="45.7441062" lon="8.602162"><ele>223.0</ele><time>2026-04-18T15:09:11.037Z</time></trkpt><trkpt lat="45.7441586" lon="8.6020997"><ele>223.0</ele><time>2026-04-18T15:09:12.012Z</time></trkpt><trkpt lat="45.7442139" lon="8.6020473"><ele>223.0</ele><time>2026-04-18T15:09:13.022Z</time></trkpt><trkpt lat="45.7442733" lon="8.6020039"><ele>223.0</ele><time>2026-04-18T15:09:14.015Z</time></trkpt><trkpt lat="45.7443385" lon="8.6019659"><ele>223.0</ele><time>2026-04-18T15:09:15.036Z</time></trkpt><trkpt lat="45.7444053" lon="8.6019302"><ele>223.0</ele><time>2026-04-18T15:09:16.042Z</time></trkpt><trkpt lat="45.7444736" lon="8.6018969"><ele>223.0</ele><time>2026-04-18T15:09:17.053Z</time></trkpt><trkpt lat="45.7445405" lon="8.6018675"><ele>223.0</ele><time>2026-04-18T15:09:18.033Z</time></trkpt><trkpt lat="45.7446089" lon="8.6018352"><ele>222.42857142857142</ele><time>2026-04-18T15:09:19.027Z</time></trkpt><trkpt lat="45.7446736" lon="8.6017947"><ele>221.85714285714283</ele><time>2026-04-18T15:09:20.031Z</time></trkpt><trkpt lat="45.7447355" lon="8.6017497"><ele>221.28571428571428</ele><time>2026-04-18T15:09:21.02Z</time></trkpt><trkpt lat="45.744799" lon="8.6017038"><ele>220.71428571428572</ele><time>2026-04-18T15:09:22.053Z</time></trkpt><trkpt lat="45.7448602" lon="8.6016582"><ele>220.14285714285714</ele><time>2026-04-18T15:09:23.026Z</time></trkpt><trkpt lat="45.7449237" lon="8.6016149"><ele>219.57142857142858</ele><time>2026-04-18T15:09:24.038Z</time></trkpt><trkpt lat="45.7449883" lon="8.6015764"><ele>219.0</ele><time>2026-04-18T15:09:25.031Z</time></trkpt><trkpt lat="45.7450565" lon="8.601544"><ele>219.0</ele><time>2026-04-18T15:09:26.039Z</time></trkpt><trkpt lat="45.7451261" lon="8.6015201"><ele>219.0</ele><time>2026-04-18T15:09:27.028Z</time></trkpt><trkpt lat="45.745192" lon="8.6015032"><ele>219.0</ele><time>2026-04-18T15:09:28.105Z</time></trkpt><trkpt lat="45.745286" lon="8.6014754"><ele>219.0</ele><time>2026-04-18T15:09:30.035Z</time></trkpt><trkpt lat="45.7453646" lon="8.6014539"><ele>219.0</ele><time>2026-04-18T15:09:32.021Z</time></trkpt><trkpt lat="45.7454544" lon="8.6014488"><ele>219.0</ele><time>2026-04-18T15:09:34.09Z</time></trkpt><trkpt lat="45.7455481" lon="8.60144"><ele>221.0</ele><time>2026-04-18T15:09:36.025Z</time></trkpt><trkpt lat="45.7456477" lon="8.6014279"><ele>223.0</ele><time>2026-04-18T15:09:38.013Z</time></trkpt><trkpt lat="45.7457593" lon="8.6014107"><ele>225.0</ele><time>2026-04-18T15:09:40.033Z</time></trkpt><trkpt lat="45.7458724" lon="8.6013693"><ele>227.0</ele><time>2026-04-18T15:09:42.052Z</time></trkpt><trkpt lat="45.7459937" lon="8.6013239"><ele>227.16666666666669</ele><time>2026-04-18T15:09:44.051Z</time></trkpt><trkpt lat="45.7460579" lon="8.6013053"><ele>227.33333333333334</ele><time>2026-04-18T15:09:45.011Z</time></trkpt><trkpt lat="45.7461234" lon="8.6012871"><ele>227.5</ele><time>2026-04-18T15:09:46.033Z</time></trkpt><trkpt lat="45.7461882" lon="8.6012663"><ele>227.66666666666669</ele><time>2026-04-18T15:09:47.034Z</time></trkpt><trkpt lat="45.7463007" lon="8.60123"><ele>227.83333333333334</ele><time>2026-04-18T15:09:49.014Z</time></trkpt><trkpt lat="45.7463937" lon="8.6012134"><ele>228.0</ele><time>2026-04-18T15:09:51.032Z</time></trkpt><trkpt lat="45.7464828" lon="8.6012153"><ele>228.0</ele><time>2026-04-18T15:09:53.027Z</time></trkpt><trkpt lat="45.7465893" lon="8.6012243"><ele>228.0</ele><time>2026-04-18T15:09:55.016Z</time></trkpt><trkpt lat="45.7466793" lon="8.6012526"><ele>228.0</ele><time>2026-04-18T15:09:57.019Z</time></trkpt><trkpt lat="45.7467468" lon="8.6012811"><ele>228.0</ele><time>2026-04-18T15:09:59.017Z</time></trkpt><trkpt lat="45.7468175" lon="8.6013063"><ele>228.0</ele><time>2026-04-18T15:10:01.068Z</time></trkpt><trkpt lat="45.7468906" lon="8.6013267"><ele>228.0</ele><time>2026-04-18T15:10:03.056Z</time></trkpt><trkpt lat="45.7469605" lon="8.6013488"><ele>230.0</ele><time>2026-04-18T15:10:05.017Z</time></trkpt><trkpt lat="45.7470266" lon="8.6013691"><ele>232.0</ele><time>2026-04-18T15:10:07.07Z</time></trkpt><trkpt lat="45.7471007" lon="8.6013647"><ele>234.0</ele><time>2026-04-18T15:10:09.025Z</time></trkpt><trkpt lat="45.747181" lon="8.6013422"><ele>236.0</ele><time>2026-04-18T15:10:11.028Z</time></trkpt><trkpt lat="45.747271" lon="8.6013164"><ele>238.0</ele><time>2026-04-18T15:10:13.031Z</time></trkpt><trkpt lat="45.7473757" lon="8.601303"><ele>240.0</ele><time>2026-04-18T15:10:15.055Z</time></trkpt><trkpt lat="45.7474795" lon="8.6012843"><ele>240.0</ele><time>2026-04-18T15:10:17.022Z</time></trkpt><trkpt lat="45.7475899" lon="8.6012471"><ele>240.0</ele><time>2026-04-18T15:10:19.021Z</time></trkpt><trkpt lat="45.7476999" lon="8.6012178"><ele>240.0</ele><time>2026-04-18T15:10:21.016Z</time></trkpt><trkpt lat="45.7478175" lon="8.6012048"><ele>240.0</ele><time>2026-04-18T15:10:23.017Z</time></trkpt><trkpt lat="45.7479332" lon="8.6011931"><ele>240.6</ele><time>2026-04-18T15:10:25.027Z</time></trkpt><trkpt lat="45.748027" lon="8.6011986"><ele>241.2</ele><time>2026-04-18T15:10:27.019Z</time></trkpt><trkpt lat="45.7481261" lon="8.6012522"><ele>241.8</ele><time>2026-04-18T15:10:29.031Z</time></trkpt><trkpt lat="45.7482129" lon="8.6013206"><ele>242.4</ele><time>2026-04-18T15:10:31.014Z</time></trkpt><trkpt lat="45.7482678" lon="8.601412"><ele>243.0</ele><time>2026-04-18T15:10:33.028Z</time></trkpt><trkpt lat="45.7483222" lon="8.6014797"><ele>243.0</ele><time>2026-04-18T15:10:35.021Z</time></trkpt><trkpt lat="45.7483989" lon="8.6014135"><ele>243.0</ele><time>2026-04-18T15:10:37.023Z</time></trkpt><trkpt lat="45.7484852" lon="8.6013313"><ele>243.0</ele><time>2026-04-18T15:10:39.022Z</time></trkpt><trkpt lat="45.7485961" lon="8.6012915"><ele>243.0</ele><time>2026-04-18T15:10:41.025Z</time></trkpt><trkpt lat="45.7486601" lon="8.6012738"><ele>243.0</ele><time>2026-04-18T15:10:42.019Z</time></trkpt><trkpt lat="45.7487324" lon="8.601253"><ele>243.0</ele><time>2026-04-18T15:10:43.025Z</time></trkpt><trkpt lat="45.748804" lon="8.6012286"><ele>243.16666666666666</ele><time>2026-04-18T15:10:44.025Z</time></trkpt><trkpt lat="45.7488749" lon="8.6012048"><ele>243.33333333333331</ele><time>2026-04-18T15:10:45.024Z</time></trkpt><trkpt lat="45.7489452" lon="8.6011821"><ele>243.5</ele><time>2026-04-18T15:10:46.074Z</time></trkpt><trkpt lat="45.7490138" lon="8.6011603"><ele>243.66666666666666</ele><time>2026-04-18T15:10:47.044Z</time></trkpt><trkpt lat="45.7490824" lon="8.6011402"><ele>243.83333333333331</ele><time>2026-04-18T15:10:48.02Z</time></trkpt><trkpt lat="45.7491488" lon="8.6011227"><ele>244.0</ele><time>2026-04-18T15:10:49.02Z</time></trkpt><trkpt lat="45.749256" lon="8.6010985"><ele>241.66666666666666</ele><time>2026-04-18T15:10:51.024Z</time></trkpt><trkpt lat="45.7493397" lon="8.6010811"><ele>239.33333333333331</ele><time>2026-04-18T15:10:53.016Z</time></trkpt><trkpt lat="45.7494105" lon="8.6010571"><ele>237.0</ele><time>2026-04-18T15:10:55.028Z</time></trkpt><trkpt lat="45.7494782" lon="8.6010289"><ele>234.66666666666669</ele><time>2026-04-18T15:10:57.034Z</time></trkpt><trkpt lat="45.7495528" lon="8.6009823"><ele>232.33333333333334</ele><time>2026-04-18T15:11:00.027Z</time></trkpt><trkpt lat="45.7496342" lon="8.6009417"><ele>230.0</ele><time>2026-04-18T15:11:03.026Z</time></trkpt><trkpt lat="45.7497215" lon="8.6009075"><ele>230.00000000000003</ele><time>2026-04-18T15:11:06.012Z</time></trkpt><trkpt lat="45.7497824" lon="8.600883"><ele>230.0</ele><time>2026-04-18T15:11:08.014Z</time></trkpt><trkpt lat="45.7498785" lon="8.6008367"><ele>230.0</ele><time>2026-04-18T15:11:11.025Z</time></trkpt><trkpt lat="45.7499591" lon="8.6007845"><ele>230.0</ele><time>2026-04-18T15:11:13.038Z</time></trkpt><trkpt lat="45.7500353" lon="8.6007507"><ele>230.00000000000003</ele><time>2026-04-18T15:11:15.049Z</time></trkpt><trkpt lat="45.7501214" lon="8.6007544"><ele>230.0</ele><time>2026-04-18T15:11:17.038Z</time></trkpt><trkpt lat="45.7501884" lon="8.6007509"><ele>231.00000000000003</ele><time>2026-04-18T15:11:19.026Z</time></trkpt><trkpt lat="45.7502252" lon="8.6006627"><ele>232.0</ele><time>2026-04-18T15:11:21.022Z</time></trkpt><trkpt lat="45.7502656" lon="8.6005269"><ele>233.0</ele><time>2026-04-18T15:11:23.02Z</time></trkpt><trkpt lat="45.7503376" lon="8.6004375"><ele>234.0</ele><time>2026-04-18T15:11:25.021Z</time></trkpt><trkpt lat="45.7503934" lon="8.6003867"><ele>235.00000000000003</ele><time>2026-04-18T15:11:27.027Z</time></trkpt><trkpt lat="45.7504632" lon="8.6003187"><ele>236.0</ele><time>2026-04-18T15:11:29.019Z</time></trkpt><trkpt lat="45.7505578" lon="8.6002471"><ele>234.00000000000003</ele><time>2026-04-18T15:11:31.03Z</time></trkpt><trkpt lat="45.750646" lon="8.6001946"><ele>232.0</ele><time>2026-04-18T15:11:33.027Z</time></trkpt><trkpt lat="45.7507334" lon="8.6001698"><ele>230.0</ele><time>2026-04-18T15:11:35.038Z</time></trkpt><trkpt lat="45.7508006" lon="8.600112"><ele>228.0</ele><time>2026-04-18T15:11:37.029Z</time></trkpt><trkpt lat="45.7508706" lon="8.6000446"><ele>226.00000000000003</ele><time>2026-04-18T15:11:39.023Z</time></trkpt><trkpt lat="45.7509516" lon="8.5999573"><ele>224.0</ele><time>2026-04-18T15:11:41.03Z</time></trkpt><trkpt lat="45.7510272" lon="8.5998786"><ele>223.33333333333334</ele><time>2026-04-18T15:11:43.013Z</time></trkpt><trkpt lat="45.751103" lon="8.599817"><ele>222.66666666666669</ele><time>2026-04-18T15:11:45.019Z</time></trkpt><trkpt lat="45.7511752" lon="8.5997429"><ele>222.0</ele><time>2026-04-18T15:11:47.026Z</time></trkpt><trkpt lat="45.7512392" lon="8.5996576"><ele>221.33333333333331</ele><time>2026-04-18T15:11:49.027Z</time></trkpt><trkpt lat="45.7512867" lon="8.5995826"><ele>220.66666666666666</ele><time>2026-04-18T15:11:51.027Z</time></trkpt><trkpt lat="45.751331" lon="8.5995184"><ele>220.0</ele><time>2026-04-18T15:11:53.023Z</time></trkpt><trkpt lat="45.7513792" lon="8.599451"><ele>220.0</ele><time>2026-04-18T15:11:55.03Z</time></trkpt><trkpt lat="45.7514439" lon="8.5993736"><ele>220.0</ele><time>2026-04-18T15:11:57.047Z</time></trkpt><trkpt lat="45.7515235" lon="8.5992922"><ele>220.0</ele><time>2026-04-18T15:11:59.029Z</time></trkpt><trkpt lat="45.7516185" lon="8.5992464"><ele>220.0</ele><time>2026-04-18T15:12:01.015Z</time></trkpt><trkpt lat="45.7517262" lon="8.5992186"><ele>220.0</ele><time>2026-04-18T15:12:03.022Z</time></trkpt><trkpt lat="45.7518453" lon="8.5991915"><ele>221.0</ele><time>2026-04-18T15:12:05.026Z</time></trkpt><trkpt lat="45.7519106" lon="8.5991798"><ele>222.0</ele><time>2026-04-18T15:12:06.041Z</time></trkpt><trkpt lat="45.7519777" lon="8.5991686"><ele>223.0</ele><time>2026-04-18T15:12:07.039Z</time></trkpt><trkpt lat="45.7520448" lon="8.5991473"><ele>224.0</ele><time>2026-04-18T15:12:08.03Z</time></trkpt><trkpt lat="45.7521115" lon="8.5991212"><ele>225.00000000000003</ele><time>2026-04-18T15:12:09.018Z</time></trkpt><trkpt lat="45.7521775" lon="8.5990947"><ele>226.0</ele><time>2026-04-18T15:12:10.04Z</time></trkpt><trkpt lat="45.7522391" lon="8.5990712"><ele>227.0</ele><time>2026-04-18T15:12:11.029Z</time></trkpt><trkpt lat="45.7523003" lon="8.5990494"><ele>227.00000000000003</ele><time>2026-04-18T15:12:12.021Z</time></trkpt><trkpt lat="45.752363" lon="8.5990332"><ele>227.0</ele><time>2026-04-18T15:12:13.027Z</time></trkpt><trkpt lat="45.752488" lon="8.5990155"><ele>227.0</ele><time>2026-04-18T15:12:15.028Z</time></trkpt><trkpt lat="45.7525524" lon="8.5990089"><ele>227.0</ele><time>2026-04-18T15:12:16.05Z</time></trkpt><trkpt lat="45.7526737" lon="8.5990176"><ele>227.00000000000003</ele><time>2026-04-18T15:12:18.018Z</time></trkpt><trkpt lat="45.7527387" lon="8.5990173"><ele>227.0</ele><time>2026-04-18T15:12:19.022Z</time></trkpt><trkpt lat="45.7528029" lon="8.599008"><ele>227.6</ele><time>2026-04-18T15:12:20.018Z</time></trkpt><trkpt lat="45.7528652" lon="8.5989921"><ele>228.2</ele><time>2026-04-18T15:12:21.052Z</time></trkpt><trkpt lat="45.7529275" lon="8.5989791"><ele>228.8</ele><time>2026-04-18T15:12:22.043Z</time></trkpt><trkpt lat="45.7530475" lon="8.5989631"><ele>229.4</ele><time>2026-04-18T15:12:24.018Z</time></trkpt><trkpt lat="45.7531573" lon="8.5989346"><ele>230.0</ele><time>2026-04-18T15:12:26.029Z</time></trkpt><trkpt lat="45.7532558" lon="8.5988855"><ele>230.0</ele><time>2026-04-18T15:12:28.105Z</time></trkpt><trkpt lat="45.7533552" lon="8.5988345"><ele>230.0</ele><time>2026-04-18T15:12:30.015Z</time></trkpt><trkpt lat="45.7534371" lon="8.5987918"><ele>230.0</ele><time>2026-04-18T15:12:32.033Z</time></trkpt><trkpt lat="45.7535102" lon="8.5988159"><ele>230.0</ele><time>2026-04-18T15:12:34.031Z</time></trkpt><trkpt lat="45.7535896" lon="8.5988887"><ele>230.0</ele><time>2026-04-18T15:12:36.037Z</time></trkpt><trkpt lat="45.7536766" lon="8.5989708"><ele>227.4</ele><time>2026-04-18T15:12:38.035Z</time></trkpt><trkpt lat="45.7537669" lon="8.5990453"><ele>224.8</ele><time>2026-04-18T15:12:40.051Z</time></trkpt><trkpt lat="45.7538599" lon="8.59914"><ele>222.2</ele><time>2026-04-18T15:12:42.019Z</time></trkpt><trkpt lat="45.7539607" lon="8.5992514"><ele>219.6</ele><time>2026-04-18T15:12:44.037Z</time></trkpt><trkpt lat="45.7540097" lon="8.599313"><ele>217.0</ele><time>2026-04-18T15:12:45.023Z</time></trkpt><trkpt lat="45.7540616" lon="8.5993785"><ele>217.0</ele><time>2026-04-18T15:12:46.059Z</time></trkpt><trkpt lat="45.7541141" lon="8.5994443"><ele>217.0</ele><time>2026-04-18T15:12:47.017Z</time></trkpt><trkpt lat="45.7541683" lon="8.5995148"><ele>217.0</ele><time>2026-04-18T15:12:48.022Z</time></trkpt><trkpt lat="45.754222" lon="8.5995854"><ele>217.0</ele><time>2026-04-18T15:12:49.024Z</time></trkpt><trkpt lat="45.7542766" lon="8.5996572"><ele>217.0</ele><time>2026-04-18T15:12:50.03Z</time></trkpt><trkpt lat="45.7543312" lon="8.5997289"><ele>217.0</ele><time>2026-04-18T15:12:51.015Z</time></trkpt><trkpt lat="45.7543897" lon="8.5997999"><ele>217.0</ele><time>2026-04-18T15:12:52.045Z</time></trkpt><trkpt lat="45.7544486" lon="8.5998676"><ele>217.57142857142858</ele><time>2026-04-18T15:12:53.019Z</time></trkpt><trkpt lat="45.7545049" lon="8.5999345"><ele>218.14285714285714</ele><time>2026-04-18T15:12:54.02Z</time></trkpt><trkpt lat="45.7545612" lon="8.5999943"><ele>218.71428571428572</ele><time>2026-04-18T15:12:55.034Z</time></trkpt><trkpt lat="45.7546158" lon="8.6000527"><ele>219.28571428571428</ele><time>2026-04-18T15:12:56.018Z</time></trkpt><trkpt lat="45.7546736" lon="8.6001148"><ele>219.85714285714286</ele><time>2026-04-18T15:12:57.014Z</time></trkpt><trkpt lat="45.7547356" lon="8.6001826"><ele>220.42857142857144</ele><time>2026-04-18T15:12:58.064Z</time></trkpt><trkpt lat="45.7547953" lon="8.6002473"><ele>221.0</ele><time>2026-04-18T15:12:59.033Z</time></trkpt><trkpt lat="45.7548572" lon="8.6003136"><ele>222.33333333333334</ele><time>2026-04-18T15:13:00.05Z</time></trkpt><trkpt lat="45.7549128" lon="8.6003798"><ele>223.66666666666669</ele><time>2026-04-18T15:13:01.017Z</time></trkpt><trkpt lat="45.7549652" lon="8.6004501"><ele>225.0</ele><time>2026-04-18T15:13:02.021Z</time></trkpt><trkpt lat="45.7550083" lon="8.6005205"><ele>226.33333333333331</ele><time>2026-04-18T15:13:03.034Z</time></trkpt><trkpt lat="45.7550852" lon="8.600638"><ele>227.66666666666666</ele><time>2026-04-18T15:13:05.049Z</time></trkpt><trkpt lat="45.7551593" lon="8.6007482"><ele>229.0</ele><time>2026-04-18T15:13:07.041Z</time></trkpt><trkpt lat="45.7551999" lon="8.6008674"><ele>228.99999999999997</ele><time>2026-04-18T15:13:09.031Z</time></trkpt><trkpt lat="45.755208" lon="8.6009728"><ele>229.0</ele><time>2026-04-18T15:13:11.032Z</time></trkpt><trkpt lat="45.7551877" lon="8.6010807"><ele>229.0</ele><time>2026-04-18T15:13:13.013Z</time></trkpt><trkpt lat="45.7551731" lon="8.6011955"><ele>229.0</ele><time>2026-04-18T15:13:15.028Z</time></trkpt><trkpt lat="45.7551607" lon="8.6013147"><ele>228.99999999999997</ele><time>2026-04-18T15:13:17.023Z</time></trkpt><trkpt lat="45.7551524" lon="8.6014322"><ele>229.0</ele><time>2026-04-18T15:13:19.038Z</time></trkpt><trkpt lat="45.7551426" lon="8.6015475"><ele>230.33333333333331</ele><time>2026-04-18T15:13:21.029Z</time></trkpt><trkpt lat="45.7551359" lon="8.6016592"><ele>231.66666666666666</ele><time>2026-04-18T15:13:23.026Z</time></trkpt><trkpt lat="45.7551257" lon="8.6017712"><ele>233.0</ele><time>2026-04-18T15:13:25.019Z</time></trkpt><trkpt lat="45.7551249" lon="8.6018973"><ele>234.33333333333331</ele><time>2026-04-18T15:13:27.027Z</time></trkpt><trkpt lat="45.7551143" lon="8.6020195"><ele>235.66666666666666</ele><time>2026-04-18T15:13:29.03Z</time></trkpt><trkpt lat="45.7551055" lon="8.6021543"><ele>237.0</ele><time>2026-04-18T15:13:31.029Z</time></trkpt><trkpt lat="45.7550972" lon="8.6022897"><ele>238.0</ele><time>2026-04-18T15:13:33.027Z</time></trkpt><trkpt lat="45.7550869" lon="8.6024183"><ele>239.0</ele><time>2026-04-18T15:13:35.027Z</time></trkpt><trkpt lat="45.7550688" lon="8.6025503"><ele>240.0</ele><time>2026-04-18T15:13:37.022Z</time></trkpt><trkpt lat="45.7550446" lon="8.6026753"><ele>241.0</ele><time>2026-04-18T15:13:39.055Z</time></trkpt><trkpt lat="45.7550365" lon="8.6027943"><ele>242.0</ele><time>2026-04-18T15:13:41.027Z</time></trkpt><trkpt lat="45.755037" lon="8.6028983"><ele>243.0</ele><time>2026-04-18T15:13:44.063Z</time></trkpt><trkpt lat="45.75502" lon="8.6028"><ele>243.0</ele><time>2026-04-18T15:14:05.018Z</time></trkpt><trkpt lat="45.755025" lon="8.6026283"><ele>243.0</ele><time>2026-04-18T15:14:43.063Z</time></trkpt><trkpt lat="45.7550383" lon="8.6025283"><ele>243.0</ele><time>2026-04-18T15:14:58.089Z</time></trkpt><trkpt lat="45.7550567" lon="8.6024183"><ele>243.0</ele><time>2026-04-18T15:15:01.013Z</time></trkpt><trkpt lat="45.7550667" lon="8.6023117"><ele>243.0</ele><time>2026-04-18T15:15:06.057Z</time></trkpt><trkpt lat="45.7550767" lon="8.6022033"><ele>243.0</ele><time>2026-04-18T15:15:10.05Z</time></trkpt><trkpt lat="45.7550833" lon="8.6021"><ele>243.0</ele><time>2026-04-18T15:15:13.015Z</time></trkpt><trkpt lat="45.7551033" lon="8.6020033"><ele>243.0</ele><time>2026-04-18T15:15:16.067Z</time></trkpt><trkpt lat="45.7551083" lon="8.60191"><ele>243.0</ele><time>2026-04-18T15:15:19.016Z</time></trkpt><trkpt lat="45.7551067" lon="8.6018183"><ele>243.0</ele><time>2026-04-18T15:15:22.049Z</time></trkpt><trkpt lat="45.7551162" lon="8.6017216"><ele>243.0</ele><time>2026-04-18T15:15:25.028Z</time></trkpt><trkpt lat="45.7551293" lon="8.6015845"><ele>243.0</ele><time>2026-04-18T15:15:28.094Z</time></trkpt><trkpt lat="45.7551435" lon="8.6014883"><ele>243.0</ele><time>2026-04-18T15:15:30.019Z</time></trkpt><trkpt lat="45.7551547" lon="8.6013919"><ele>241.0</ele><time>2026-04-18T15:15:32.025Z</time></trkpt><trkpt lat="45.7551702" lon="8.6012616"><ele>239.0</ele><time>2026-04-18T15:15:35.026Z</time></trkpt><trkpt lat="45.7551931" lon="8.6011582"><ele>237.0</ele><time>2026-04-18T15:15:38.02Z</time></trkpt><trkpt lat="45.7558483" lon="8.6024517"><ele>235.5</ele><time>2026-04-18T15:18:12.026Z</time></trkpt><trkpt lat="45.7558817" lon="8.602535"><ele>234.0</ele><time>2026-04-18T15:18:32.029Z</time></trkpt><trkpt lat="45.755915" lon="8.60262"><ele>232.5</ele><time>2026-04-18T15:18:37.051Z</time></trkpt><trkpt lat="45.75598" lon="8.6026883"><ele>231.0</ele><time>2026-04-18T15:18:41.028Z</time></trkpt><trkpt lat="45.7560983" lon="8.6027667"><ele>229.5</ele><time>2026-04-18T15:18:55.019Z</time></trkpt><trkpt lat="45.7561583" lon="8.6028333"><ele>228.0</ele><time>2026-04-18T15:18:58.09Z</time></trkpt><trkpt lat="45.756235" lon="8.6029083"><ele>227.83333333333334</ele><time>2026-04-18T15:19:01.02Z</time></trkpt><trkpt lat="45.7563117" lon="8.602985"><ele>227.66666666666669</ele><time>2026-04-18T15:19:04.025Z</time></trkpt><trkpt lat="45.7563825" lon="8.6030565"><ele>227.5</ele><time>2026-04-18T15:19:07.017Z</time></trkpt><trkpt lat="45.7564464" lon="8.6031475"><ele>227.33333333333334</ele><time>2026-04-18T15:19:10.065Z</time></trkpt><trkpt lat="45.7565054" lon="8.6032345"><ele>227.16666666666669</ele><time>2026-04-18T15:19:13.026Z</time></trkpt><trkpt lat="45.7565593" lon="8.6032823"><ele>227.0</ele><time>2026-04-18T15:19:15.017Z</time></trkpt><trkpt lat="45.7566367" lon="8.6033564"><ele>227.00000000000003</ele><time>2026-04-18T15:19:18.024Z</time></trkpt><trkpt lat="45.7567074" lon="8.6034342"><ele>227.0</ele><time>2026-04-18T15:19:21.025Z</time></trkpt><trkpt lat="45.7567578" lon="8.6034942"><ele>227.0</ele><time>2026-04-18T15:19:23.033Z</time></trkpt><trkpt lat="45.756827" lon="8.6035736"><ele>227.0</ele><time>2026-04-18T15:19:26.022Z</time></trkpt><trkpt lat="45.7568988" lon="8.6036557"><ele>227.00000000000003</ele><time>2026-04-18T15:19:29.02Z</time></trkpt><trkpt lat="45.7569482" lon="8.6037252"><ele>227.0</ele><time>2026-04-18T15:19:31.018Z</time></trkpt><trkpt lat="45.7569944" lon="8.6037881"><ele>226.00000000000003</ele><time>2026-04-18T15:19:33.028Z</time></trkpt><trkpt lat="45.7570284" lon="8.6038643"><ele>225.0</ele><time>2026-04-18T15:19:35.032Z</time></trkpt><trkpt lat="45.7570667" lon="8.6039717"><ele>224.0</ele><time>2026-04-18T15:19:38.019Z</time></trkpt><trkpt lat="45.7571151" lon="8.6040787"><ele>223.0</ele><time>2026-04-18T15:19:41.018Z</time></trkpt><trkpt lat="45.7571732" lon="8.6041777"><ele>222.00000000000003</ele><time>2026-04-18T15:19:44.016Z</time></trkpt><trkpt lat="45.7572236" lon="8.6042884"><ele>221.0</ele><time>2026-04-18T15:19:47.022Z</time></trkpt><trkpt lat="45.7572544" lon="8.6043755"><ele>221.00000000000003</ele><time>2026-04-18T15:19:49.017Z</time></trkpt><trkpt lat="45.757284" lon="8.604463"><ele>221.0</ele><time>2026-04-18T15:19:51.015Z</time></trkpt><trkpt lat="45.7573272" lon="8.6045516"><ele>221.0</ele><time>2026-04-18T15:19:53.024Z</time></trkpt><trkpt lat="45.7573819" lon="8.6046408"><ele>221.0</ele><time>2026-04-18T15:19:55.027Z</time></trkpt><trkpt lat="45.757431" lon="8.6047261"><ele>221.0</ele><time>2026-04-18T15:19:57.02Z</time></trkpt><trkpt lat="45.7574755" lon="8.6048041"><ele>221.00000000000003</ele><time>2026-04-18T15:19:59.019Z</time></trkpt><trkpt lat="45.7575162" lon="8.6048823"><ele>221.0</ele><time>2026-04-18T15:20:01.016Z</time></trkpt><trkpt lat="45.7575846" lon="8.6049698"><ele>221.2857142857143</ele><time>2026-04-18T15:20:04.028Z</time></trkpt><trkpt lat="45.7576453" lon="8.60502"><ele>221.57142857142858</ele><time>2026-04-18T15:20:06.036Z</time></trkpt><trkpt lat="45.7577186" lon="8.6050744"><ele>221.85714285714286</ele><time>2026-04-18T15:20:08.034Z</time></trkpt><trkpt lat="45.7577857" lon="8.60511"><ele>222.14285714285717</ele><time>2026-04-18T15:20:10.061Z</time></trkpt><trkpt lat="45.757845" lon="8.6051531"><ele>222.42857142857142</ele><time>2026-04-18T15:20:13.04Z</time></trkpt><trkpt lat="45.75791" lon="8.60519"><ele>222.71428571428572</ele><time>2026-04-18T15:20:50.022Z</time></trkpt><trkpt lat="45.757985" lon="8.6052233"><ele>223.0</ele><time>2026-04-18T15:20:52.073Z</time></trkpt><trkpt lat="45.75807" lon="8.6052567"><ele>223.0</ele><time>2026-04-18T15:20:54.012Z</time></trkpt><trkpt lat="45.7581533" lon="8.6052867"><ele>223.0</ele><time>2026-04-18T15:20:56.037Z</time></trkpt><trkpt lat="45.7582383" lon="8.6053183"><ele>223.0</ele><time>2026-04-18T15:20:58.012Z</time></trkpt><trkpt lat="45.75833" lon="8.6053567"><ele>223.0</ele><time>2026-04-18T15:21:00.017Z</time></trkpt><trkpt lat="45.75842" lon="8.6053933"><ele>223.0</ele><time>2026-04-18T15:21:02.048Z</time></trkpt><trkpt lat="45.75851" lon="8.6054617"><ele>223.33333333333331</ele><time>2026-04-18T15:21:04.097Z</time></trkpt><trkpt lat="45.758585" lon="8.605515"><ele>223.66666666666666</ele><time>2026-04-18T15:21:06.017Z</time></trkpt><trkpt lat="45.7586683" lon="8.6055833"><ele>224.0</ele><time>2026-04-18T15:21:08.024Z</time></trkpt><trkpt lat="45.758735" lon="8.60565"><ele>224.33333333333331</ele><time>2026-04-18T15:21:10.064Z</time></trkpt><trkpt lat="45.75879" lon="8.6057133"><ele>224.66666666666666</ele><time>2026-04-18T15:21:13.022Z</time></trkpt><trkpt lat="45.7588643" lon="8.6057422"><ele>225.0</ele><time>2026-04-18T15:21:17.02Z</time></trkpt><trkpt lat="45.7589372" lon="8.6057423"><ele>225.0</ele><time>2026-04-18T15:21:20.024Z</time></trkpt><trkpt lat="45.7590246" lon="8.6057415"><ele>225.0</ele><time>2026-04-18T15:21:23.015Z</time></trkpt><trkpt lat="45.7591023" lon="8.6057534"><ele>225.0</ele><time>2026-04-18T15:21:26.018Z</time></trkpt><trkpt lat="45.759182" lon="8.605779"><ele>225.0</ele><time>2026-04-18T15:21:28.105Z</time></trkpt><trkpt lat="45.7592546" lon="8.6058079"><ele>225.0</ele><time>2026-04-18T15:21:30.045Z</time></trkpt><trkpt lat="45.7593381" lon="8.6058411"><ele>225.0</ele><time>2026-04-18T15:21:32.021Z</time></trkpt><trkpt lat="45.7594344" lon="8.6058467"><ele>224.5</ele><time>2026-04-18T15:21:34.111Z</time></trkpt><trkpt lat="45.7595143" lon="8.6058379"><ele>224.0</ele><time>2026-04-18T15:21:36.013Z</time></trkpt><trkpt lat="45.7595939" lon="8.6058473"><ele>223.5</ele><time>2026-04-18T15:21:39.052Z</time></trkpt><trkpt lat="45.7596552" lon="8.6058871"><ele>223.0</ele><time>2026-04-18T15:21:42.048Z</time></trkpt><trkpt lat="45.7596986" lon="8.6060119"><ele>222.5</ele><time>2026-04-18T15:21:45.033Z</time></trkpt><trkpt lat="45.7597202" lon="8.6061551"><ele>222.0</ele><time>2026-04-18T15:21:47.023Z</time></trkpt><trkpt lat="45.7597368" lon="8.606246"><ele>222.0</ele><time>2026-04-18T15:21:48.057Z</time></trkpt><trkpt lat="45.7597525" lon="8.6063393"><ele>222.0</ele><time>2026-04-18T15:21:49.017Z</time></trkpt><trkpt lat="45.7597682" lon="8.6064379"><ele>222.0</ele><time>2026-04-18T15:21:50.034Z</time></trkpt><trkpt lat="45.7597874" lon="8.6065409"><ele>222.0</ele><time>2026-04-18T15:21:51.031Z</time></trkpt><trkpt lat="45.759808" lon="8.606649"><ele>222.0</ele><time>2026-04-18T15:21:52.071Z</time></trkpt><trkpt lat="45.7598321" lon="8.6067501"><ele>222.0</ele><time>2026-04-18T15:21:53.025Z</time></trkpt><trkpt lat="45.7598706" lon="8.6068478"><ele>222.0</ele><time>2026-04-18T15:21:54.019Z</time></trkpt><trkpt lat="45.7599207" lon="8.6069399"><ele>222.6</ele><time>2026-04-18T15:21:55.026Z</time></trkpt><trkpt lat="45.7599832" lon="8.6070224"><ele>223.2</ele><time>2026-04-18T15:21:56.019Z</time></trkpt><trkpt lat="45.760053" lon="8.6070985"><ele>223.8</ele><time>2026-04-18T15:21:57.06Z</time></trkpt><trkpt lat="45.7601283" lon="8.6071674"><ele>224.4</ele><time>2026-04-18T15:21:58.087Z</time></trkpt><trkpt lat="45.7602094" lon="8.6072217"><ele>225.0</ele><time>2026-04-18T15:21:59.025Z</time></trkpt><trkpt lat="45.7603017" lon="8.607275"><ele>225.0</ele><time>2026-04-18T15:22:00.051Z</time></trkpt><trkpt lat="45.7603917" lon="8.6073233"><ele>225.0</ele><time>2026-04-18T15:22:01.026Z</time></trkpt><trkpt lat="45.760485" lon="8.607375"><ele>225.0</ele><time>2026-04-18T15:22:02.016Z</time></trkpt><trkpt lat="45.7605767" lon="8.6074267"><ele>225.0</ele><time>2026-04-18T15:22:03.03Z</time></trkpt><trkpt lat="45.7606667" lon="8.6074817"><ele>225.0</ele><time>2026-04-18T15:22:04.085Z</time></trkpt><trkpt lat="45.760755" lon="8.6075367"><ele>225.0</ele><time>2026-04-18T15:22:05.028Z</time></trkpt><trkpt lat="45.7608417" lon="8.6075967"><ele>225.0</ele><time>2026-04-18T15:22:06.024Z</time></trkpt><trkpt lat="45.7609267" lon="8.6076583"><ele>225.0</ele><time>2026-04-18T15:22:07.024Z</time></trkpt><trkpt lat="45.76101" lon="8.60772"><ele>225.0</ele><time>2026-04-18T15:22:08.019Z</time></trkpt><trkpt lat="45.761095" lon="8.607785"><ele>225.0</ele><time>2026-04-18T15:22:09.021Z</time></trkpt><trkpt lat="45.7611783" lon="8.6078517"><ele>226.6</ele><time>2026-04-18T15:22:10.075Z</time></trkpt><trkpt lat="45.7612633" lon="8.60792"><ele>228.2</ele><time>2026-04-18T15:22:11.025Z</time></trkpt><trkpt lat="45.7613483" lon="8.6079867"><ele>229.8</ele><time>2026-04-18T15:22:12.052Z</time></trkpt><trkpt lat="45.7614333" lon="8.60805"><ele>231.4</ele><time>2026-04-18T15:22:13.017Z</time></trkpt><trkpt lat="45.7615183" lon="8.6081167"><ele>233.0</ele><time>2026-04-18T15:22:14.018Z</time></trkpt><trkpt lat="45.7616017" lon="8.6081867"><ele>233.0</ele><time>2026-04-18T15:22:15.028Z</time></trkpt><trkpt lat="45.7616833" lon="8.60826"><ele>233.0</ele><time>2026-04-18T15:22:16.065Z</time></trkpt><trkpt lat="45.76176" lon="8.6083417"><ele>233.0</ele><time>2026-04-18T15:22:17.021Z</time></trkpt><trkpt lat="45.7618333" lon="8.6084317"><ele>233.0</ele><time>2026-04-18T15:22:18.012Z</time></trkpt><trkpt lat="45.7619033" lon="8.608525"><ele>233.0</ele><time>2026-04-18T15:22:19.014Z</time></trkpt><trkpt lat="45.7619683" lon="8.608625"><ele>231.83333333333334</ele><time>2026-04-18T15:22:20.019Z</time></trkpt><trkpt lat="45.7620283" lon="8.6087267"><ele>230.66666666666669</ele><time>2026-04-18T15:22:21.032Z</time></trkpt><trkpt lat="45.7620817" lon="8.6088283"><ele>229.5</ele><time>2026-04-18T15:22:22.069Z</time></trkpt><trkpt lat="45.7621317" lon="8.60892"><ele>228.33333333333331</ele><time>2026-04-18T15:22:23.022Z</time></trkpt><trkpt lat="45.7621767" lon="8.608995"><ele>227.16666666666666</ele><time>2026-04-18T15:22:24.023Z</time></trkpt><trkpt lat="45.762245" lon="8.6091117"><ele>226.0</ele><time>2026-04-18T15:22:26.009Z</time></trkpt><trkpt lat="45.7622717" lon="8.6092033"><ele>225.99999999999997</ele><time>2026-04-18T15:22:28.092Z</time></trkpt><trkpt lat="45.76221" lon="8.6093017"><ele>226.0</ele><time>2026-04-18T15:22:31.009Z</time></trkpt><trkpt lat="45.762145" lon="8.6093633"><ele>226.0</ele><time>2026-04-18T15:22:33.021Z</time></trkpt><trkpt lat="45.762085" lon="8.609435"><ele>226.0</ele><time>2026-04-18T15:22:36.026Z</time></trkpt><trkpt lat="45.7620237" lon="8.6094835"><ele>225.99999999999997</ele><time>2026-04-18T15:22:41.015Z</time></trkpt><trkpt lat="45.7619409" lon="8.6095266"><ele>226.0</ele><time>2026-04-18T15:22:44.012Z</time></trkpt><trkpt lat="45.7618692" lon="8.6095525"><ele>228.49999999999997</ele><time>2026-04-18T15:22:46.092Z</time></trkpt><trkpt lat="45.7617873" lon="8.6095733"><ele>231.0</ele><time>2026-04-18T15:22:48.05Z</time></trkpt><trkpt lat="45.7617016" lon="8.6095679"><ele>233.5</ele><time>2026-04-18T15:22:50.027Z</time></trkpt><trkpt lat="45.7616078" lon="8.6095495"><ele>236.0</ele><time>2026-04-18T15:22:52.07Z</time></trkpt><trkpt lat="45.7615214" lon="8.6095229"><ele>238.49999999999997</ele><time>2026-04-18T15:22:54.053Z</time></trkpt><trkpt lat="45.7614385" lon="8.6095023"><ele>241.0</ele><time>2026-04-18T15:22:56.032Z</time></trkpt><trkpt lat="45.7613534" lon="8.609492"><ele>241.0</ele><time>2026-04-18T15:22:58.052Z</time></trkpt><trkpt lat="45.7612561" lon="8.6094784"><ele>241.00000000000003</ele><time>2026-04-18T15:23:00.034Z</time></trkpt><trkpt lat="45.7611536" lon="8.6094646"><ele>241.00000000000003</ele><time>2026-04-18T15:23:02.025Z</time></trkpt><trkpt lat="45.7610409" lon="8.6094529"><ele>241.0</ele><time>2026-04-18T15:23:04.018Z</time></trkpt><trkpt lat="45.7609245" lon="8.60944"><ele>241.0</ele><time>2026-04-18T15:23:06.021Z</time></trkpt><trkpt lat="45.7608174" lon="8.609427"><ele>241.49999999999997</ele><time>2026-04-18T15:23:08.012Z</time></trkpt><trkpt lat="45.7607254" lon="8.6094103"><ele>242.0</ele><time>2026-04-18T15:23:10.069Z</time></trkpt><trkpt lat="45.7606402" lon="8.6093879"><ele>242.5</ele><time>2026-04-18T15:23:13.016Z</time></trkpt><trkpt lat="45.7605753" lon="8.6093968"><ele>243.0</ele><time>2026-04-18T15:23:15.022Z</time></trkpt><trkpt lat="45.7605076" lon="8.6094364"><ele>243.49999999999997</ele><time>2026-04-18T15:23:17.016Z</time></trkpt><trkpt lat="45.7604345" lon="8.6094835"><ele>244.0</ele><time>2026-04-18T15:23:19.019Z</time></trkpt><trkpt lat="45.7603648" lon="8.6095628"><ele>244.0</ele><time>2026-04-18T15:23:21.028Z</time></trkpt><trkpt lat="45.7603145" lon="8.6096669"><ele>243.99999999999997</ele><time>2026-04-18T15:23:23.035Z</time></trkpt><trkpt lat="45.7602575" lon="8.609769"><ele>243.99999999999997</ele><time>2026-04-18T15:23:25.03Z</time></trkpt><trkpt lat="45.760175" lon="8.6098396"><ele>244.0</ele><time>2026-04-18T15:23:27.013Z</time></trkpt><trkpt lat="45.7600786" lon="8.6098951"><ele>244.0</ele><time>2026-04-18T15:23:29.032Z</time></trkpt><trkpt lat="45.7599952" lon="8.6099571"><ele>243.99999999999997</ele><time>2026-04-18T15:23:31.058Z</time></trkpt><trkpt lat="45.7599226" lon="8.6100206"><ele>244.0</ele><time>2026-04-18T15:23:33.034Z</time></trkpt><trkpt lat="45.7598648" lon="8.610108"><ele>244.0</ele><time>2026-04-18T15:23:35.031Z</time></trkpt><trkpt lat="45.7598181" lon="8.6102034"><ele>244.0</ele><time>2026-04-18T15:23:37.016Z</time></trkpt><trkpt lat="45.7597879" lon="8.6103034"><ele>243.99999999999997</ele><time>2026-04-18T15:23:39.014Z</time></trkpt><trkpt lat="45.7597542" lon="8.6103937"><ele>244.0</ele><time>2026-04-18T15:23:41.016Z</time></trkpt><trkpt lat="45.7597117" lon="8.6104744"><ele>244.0</ele><time>2026-04-18T15:23:43.025Z</time></trkpt><trkpt lat="45.759653" lon="8.610554"><ele>243.99999999999997</ele><time>2026-04-18T15:23:45.028Z</time></trkpt><trkpt lat="45.7595815" lon="8.6106381"><ele>243.99999999999997</ele><time>2026-04-18T15:23:47.027Z</time></trkpt><trkpt lat="45.7594987" lon="8.6107322"><ele>244.0</ele><time>2026-04-18T15:23:49.012Z</time></trkpt><trkpt lat="45.7594215" lon="8.6108299"><ele>244.0</ele><time>2026-04-18T15:23:51.025Z</time></trkpt><trkpt lat="45.7593661" lon="8.6109156"><ele>245.16666666666666</ele><time>2026-04-18T15:23:53.034Z</time></trkpt><trkpt lat="45.7593243" lon="8.6109891"><ele>246.33333333333331</ele><time>2026-04-18T15:23:56.031Z</time></trkpt><trkpt lat="45.7592747" lon="8.6111089"><ele>247.5</ele><time>2026-04-18T15:23:59.033Z</time></trkpt><trkpt lat="45.7592371" lon="8.6112054"><ele>248.66666666666669</ele><time>2026-04-18T15:24:01.011Z</time></trkpt><trkpt lat="45.759203" lon="8.6113123"><ele>249.83333333333334</ele><time>2026-04-18T15:24:03.016Z</time></trkpt><trkpt lat="45.7591707" lon="8.611408"><ele>251.0</ele><time>2026-04-18T15:24:05.028Z</time></trkpt><trkpt lat="45.7591151" lon="8.611468"><ele>251.00000000000003</ele><time>2026-04-18T15:24:15.012Z</time></trkpt><trkpt lat="45.7591017" lon="8.61156"><ele>251.0</ele><time>2026-04-18T15:24:58.08Z</time></trkpt><trkpt lat="45.7591433" lon="8.6116667"><ele>251.0</ele><time>2026-04-18T15:25:11.031Z</time></trkpt><trkpt lat="45.7591983" lon="8.6117317"><ele>251.0</ele><time>2026-04-18T15:25:13.025Z</time></trkpt><trkpt lat="45.7592683" lon="8.6118117"><ele>251.00000000000003</ele><time>2026-04-18T15:25:15.029Z</time></trkpt><trkpt lat="45.7593317" lon="8.6119"><ele>251.0</ele><time>2026-04-18T15:25:17.015Z</time></trkpt><trkpt lat="45.7593983" lon="8.6119783"><ele>251.16666666666669</ele><time>2026-04-18T15:25:19.013Z</time></trkpt><trkpt lat="45.7594707" lon="8.6120601"><ele>251.33333333333334</ele><time>2026-04-18T15:25:21.022Z</time></trkpt><trkpt lat="45.7595601" lon="8.6121593"><ele>251.5</ele><time>2026-04-18T15:25:23.021Z</time></trkpt><trkpt lat="45.7596318" lon="8.6122326"><ele>251.66666666666669</ele><time>2026-04-18T15:25:25.027Z</time></trkpt><trkpt lat="45.7596856" lon="8.6123045"><ele>251.83333333333334</ele><time>2026-04-18T15:25:27.058Z</time></trkpt><trkpt lat="45.7597236" lon="8.6123808"><ele>252.0</ele><time>2026-04-18T15:25:29.041Z</time></trkpt><trkpt lat="45.7597749" lon="8.6124938"><ele>252.0</ele><time>2026-04-18T15:25:31.024Z</time></trkpt><trkpt lat="45.7598203" lon="8.6126243"><ele>252.0</ele><time>2026-04-18T15:25:33.025Z</time></trkpt><trkpt lat="45.7598832" lon="8.6128181"><ele>252.0</ele><time>2026-04-18T15:25:36.012Z</time></trkpt><trkpt lat="45.7599348" lon="8.6129427"><ele>252.0</ele><time>2026-04-18T15:25:38.084Z</time></trkpt><trkpt lat="45.7599782" lon="8.613032"><ele>252.0</ele><time>2026-04-18T15:25:40.075Z</time></trkpt><trkpt lat="45.7600329" lon="8.6130871"><ele>252.83333333333334</ele><time>2026-04-18T15:25:43.015Z</time></trkpt><trkpt lat="45.760115" lon="8.6131483"><ele>253.66666666666669</ele><time>2026-04-18T15:26:49.039Z</time></trkpt><trkpt lat="45.760185" lon="8.6131867"><ele>254.5</ele><time>2026-04-18T15:26:51.024Z</time></trkpt><trkpt lat="45.7602633" lon="8.6132367"><ele>255.33333333333334</ele><time>2026-04-18T15:26:53.027Z</time></trkpt><trkpt lat="45.760345" lon="8.6132833"><ele>256.1666666666667</ele><time>2026-04-18T15:26:55.031Z</time></trkpt><trkpt lat="45.7604283" lon="8.6133517"><ele>257.0</ele><time>2026-04-18T15:26:57.023Z</time></trkpt><trkpt lat="45.7604983" lon="8.61348"><ele>257.0</ele><time>2026-04-18T15:26:59.016Z</time></trkpt><trkpt lat="45.7605283" lon="8.613575"><ele>257.0</ele><time>2026-04-18T15:27:00.042Z</time></trkpt><trkpt lat="45.7605483" lon="8.61369"><ele>257.0</ele><time>2026-04-18T15:27:01.017Z</time></trkpt><trkpt lat="45.76056" lon="8.6138033"><ele>257.0</ele><time>2026-04-18T15:27:02.015Z</time></trkpt><trkpt lat="45.7605683" lon="8.613905"><ele>257.0</ele><time>2026-04-18T15:27:03.021Z</time></trkpt><trkpt lat="45.760575" lon="8.6140317"><ele>257.0</ele><time>2026-04-18T15:27:05.015Z</time></trkpt><trkpt lat="45.7605467" lon="8.6141433"><ele>257.83333333333337</ele><time>2026-04-18T15:27:08.026Z</time></trkpt><trkpt lat="45.7604983" lon="8.6142533"><ele>258.6666666666667</ele><time>2026-04-18T15:27:10.082Z</time></trkpt><trkpt lat="45.7604317" lon="8.6143867"><ele>259.5</ele><time>2026-04-18T15:27:12.042Z</time></trkpt><trkpt lat="45.760355" lon="8.61451"><ele>260.3333333333333</ele><time>2026-04-18T15:27:14.013Z</time></trkpt><trkpt lat="45.7603133" lon="8.61458"><ele>261.16666666666663</ele><time>2026-04-18T15:27:16.058Z</time></trkpt><trkpt lat="45.760285" lon="8.6146617"><ele>262.0</ele><time>2026-04-18T15:27:20.016Z</time></trkpt><trkpt lat="45.7602983" lon="8.61475"><ele>262.0</ele><time>2026-04-18T15:27:22.067Z</time></trkpt><trkpt lat="45.7603583" lon="8.6148517"><ele>262.0</ele><time>2026-04-18T15:27:24.03Z</time></trkpt><trkpt lat="45.760465" lon="8.6149667"><ele>262.0</ele><time>2026-04-18T15:27:26.015Z</time></trkpt><trkpt lat="45.7605333" lon="8.615025"><ele>262.0</ele><time>2026-04-18T15:27:27.027Z</time></trkpt><trkpt lat="45.7606067" lon="8.6150817"><ele>262.0</ele><time>2026-04-18T15:27:28.077Z</time></trkpt><trkpt lat="45.760685" lon="8.61514"><ele>262.0</ele><time>2026-04-18T15:27:29.012Z</time></trkpt><trkpt lat="45.76076" lon="8.6152017"><ele>262.0</ele><time>2026-04-18T15:27:30.031Z</time></trkpt><trkpt lat="45.7608267" lon="8.6152717"><ele>262.0</ele><time>2026-04-18T15:27:31.027Z</time></trkpt><trkpt lat="45.7608883" lon="8.615345"><ele>262.0</ele><time>2026-04-18T15:27:32.019Z</time></trkpt><trkpt lat="45.7609383" lon="8.6154133"><ele>262.0</ele><time>2026-04-18T15:27:33.023Z</time></trkpt><trkpt lat="45.7609817" lon="8.6154833"><ele>262.0</ele><time>2026-04-18T15:27:34.064Z</time></trkpt><trkpt lat="45.761055" lon="8.6156267"><ele>261.0</ele><time>2026-04-18T15:27:36.037Z</time></trkpt><trkpt lat="45.7611717" lon="8.6158317"><ele>260.0</ele><time>2026-04-18T15:27:39.092Z</time></trkpt><trkpt lat="45.7612567" lon="8.615925"><ele>259.0</ele><time>2026-04-18T15:27:41.034Z</time></trkpt><trkpt lat="45.7613333" lon="8.6159917"><ele>258.0</ele><time>2026-04-18T15:27:43.021Z</time></trkpt><trkpt lat="45.76141" lon="8.6160617"><ele>258.0</ele><time>2026-04-18T15:27:45.019Z</time></trkpt><trkpt lat="45.7614917" lon="8.6161417"><ele>258.0</ele><time>2026-04-18T15:27:47.009Z</time></trkpt><trkpt lat="45.7615867" lon="8.6162233"><ele>258.0</ele><time>2026-04-18T15:27:49.02Z</time></trkpt><trkpt lat="45.7616917" lon="8.6163117"><ele>258.0</ele><time>2026-04-18T15:27:51.051Z</time></trkpt><trkpt lat="45.7617517" lon="8.6163417"><ele>258.0</ele><time>2026-04-18T15:27:52.061Z</time></trkpt><trkpt lat="45.7618667" lon="8.6163883"><ele>258.0</ele><time>2026-04-18T15:27:54.017Z</time></trkpt><trkpt lat="45.7619367" lon="8.61643"><ele>258.0</ele><time>2026-04-18T15:27:56.043Z</time></trkpt><trkpt lat="45.761985" lon="8.6163317"><ele>258.0</ele><time>2026-04-18T15:28:00.039Z</time></trkpt><trkpt lat="45.7620483" lon="8.61622"><ele>258.0</ele><time>2026-04-18T15:28:02.018Z</time></trkpt><trkpt lat="45.7621317" lon="8.6160867"><ele>258.0</ele><time>2026-04-18T15:28:04.074Z</time></trkpt><trkpt lat="45.7622067" lon="8.6159717"><ele>258.0</ele><time>2026-04-18T15:28:06.019Z</time></trkpt><trkpt lat="45.76227" lon="8.615955"><ele>258.0</ele><time>2026-04-18T15:28:08.03Z</time></trkpt><trkpt lat="45.762355" lon="8.6160467"><ele>258.0</ele><time>2026-04-18T15:28:10.074Z</time></trkpt><trkpt lat="45.7624567" lon="8.6161633"><ele>258.0</ele><time>2026-04-18T15:28:12.017Z</time></trkpt><trkpt lat="45.76254" lon="8.6162717"><ele>258.0</ele><time>2026-04-18T15:28:14.017Z</time></trkpt><trkpt lat="45.7626" lon="8.6163483"><ele>258.6</ele><time>2026-04-18T15:28:16.075Z</time></trkpt><trkpt lat="45.7626683" lon="8.6164283"><ele>259.20000000000005</ele><time>2026-04-18T15:28:19.017Z</time></trkpt><trkpt lat="45.7627433" lon="8.61648"><ele>259.8</ele><time>2026-04-18T15:28:30.016Z</time></trkpt><trkpt lat="45.7628283" lon="8.6164533"><ele>260.40000000000003</ele><time>2026-04-18T15:28:32.053Z</time></trkpt><trkpt lat="45.7629183" lon="8.61642"><ele>261.0</ele><time>2026-04-18T15:28:34.068Z</time></trkpt><trkpt lat="45.763015" lon="8.6163883"><ele>261.42857142857144</ele><time>2026-04-18T15:28:36.016Z</time></trkpt><trkpt lat="45.7630783" lon="8.61638"><ele>261.85714285714283</ele><time>2026-04-18T15:28:38.042Z</time></trkpt><trkpt lat="45.7631583" lon="8.616325"><ele>262.2857142857143</ele><time>2026-04-18T15:28:47.019Z</time></trkpt><trkpt lat="45.7632" lon="8.6162217"><ele>262.7142857142857</ele><time>2026-04-18T15:28:49.013Z</time></trkpt><trkpt lat="45.763225" lon="8.6161367"><ele>263.14285714285717</ele><time>2026-04-18T15:28:50.017Z</time></trkpt><trkpt lat="45.7632617" lon="8.6160467"><ele>263.57142857142856</ele><time>2026-04-18T15:28:51.014Z</time></trkpt><trkpt lat="45.763295" lon="8.6159617"><ele>264.0</ele><time>2026-04-18T15:28:52.056Z</time></trkpt><trkpt lat="45.7633267" lon="8.6158783"><ele>264.0</ele><time>2026-04-18T15:28:53.018Z</time></trkpt><trkpt lat="45.7633858" lon="8.61572"><ele>264.0</ele><time>2026-04-18T15:28:55.018Z</time></trkpt><trkpt lat="45.7634457" lon="8.6155666"><ele>264.0</ele><time>2026-04-18T15:28:57.039Z</time></trkpt><trkpt lat="45.7635138" lon="8.6154323"><ele>264.0</ele><time>2026-04-18T15:28:59.038Z</time></trkpt><trkpt lat="45.763581" lon="8.615301"><ele>264.6666666666667</ele><time>2026-04-18T15:29:01.016Z</time></trkpt><trkpt lat="45.7636423" lon="8.6151801"><ele>265.3333333333333</ele><time>2026-04-18T15:29:03.027Z</time></trkpt><trkpt lat="45.7636923" lon="8.6150656"><ele>266.0</ele><time>2026-04-18T15:29:05.025Z</time></trkpt><trkpt lat="45.7637152" lon="8.6149711"><ele>266.66666666666663</ele><time>2026-04-18T15:29:07.034Z</time></trkpt><trkpt lat="45.7637456" lon="8.6148622"><ele>267.3333333333333</ele><time>2026-04-18T15:29:10.071Z</time></trkpt><trkpt lat="45.7638241" lon="8.6148212"><ele>268.0</ele><time>2026-04-18T15:29:13.028Z</time></trkpt><trkpt lat="45.763894" lon="8.6148509"><ele>268.0</ele><time>2026-04-18T15:29:15.061Z</time></trkpt><trkpt lat="45.7639695" lon="8.6148977"><ele>268.0</ele><time>2026-04-18T15:29:18.022Z</time></trkpt><trkpt lat="45.7640441" lon="8.6149392"><ele>268.0</ele><time>2026-04-18T15:29:21.018Z</time></trkpt><trkpt lat="45.7641356" lon="8.6150232"><ele>268.0</ele><time>2026-04-18T15:29:23.015Z</time></trkpt><trkpt lat="45.7642066" lon="8.615059"><ele>268.0</ele><time>2026-04-18T15:29:25.019Z</time></trkpt><trkpt lat="45.7642789" lon="8.6150781"><ele>268.0</ele><time>2026-04-18T15:29:29.015Z</time></trkpt><trkpt lat="45.7643261" lon="8.6149377"><ele>268.0</ele><time>2026-04-18T15:29:32.02Z</time></trkpt><trkpt lat="45.7643653" lon="8.6147679"><ele>268.0</ele><time>2026-04-18T15:29:34.071Z</time></trkpt><trkpt lat="45.7643859" lon="8.614682"><ele>268.0</ele><time>2026-04-18T15:29:35.024Z</time></trkpt><trkpt lat="45.7644089" lon="8.6145954"><ele>268.0</ele><time>2026-04-18T15:29:36.024Z</time></trkpt><trkpt lat="45.7644427" lon="8.6144361"><ele>268.0</ele><time>2026-04-18T15:29:38.027Z</time></trkpt><trkpt lat="45.7644808" lon="8.6142999"><ele>267.0</ele><time>2026-04-18T15:29:40.063Z</time></trkpt><trkpt lat="45.7645665" lon="8.6142184"><ele>266.0</ele><time>2026-04-18T15:29:42.052Z</time></trkpt><trkpt lat="45.7646605" lon="8.6141874"><ele>265.0</ele><time>2026-04-18T15:29:44.028Z</time></trkpt><trkpt lat="45.7647711" lon="8.6141956"><ele>264.0</ele><time>2026-04-18T15:29:46.094Z</time></trkpt><trkpt lat="45.7648913" lon="8.6142073"><ele>263.0</ele><time>2026-04-18T15:29:48.026Z</time></trkpt><trkpt lat="45.7650166" lon="8.6142141"><ele>263.0</ele><time>2026-04-18T15:29:50.034Z</time></trkpt><trkpt lat="45.7650854" lon="8.6142158"><ele>263.0</ele><time>2026-04-18T15:29:51.026Z</time></trkpt><trkpt lat="45.7651536" lon="8.6142211"><ele>263.0</ele><time>2026-04-18T15:29:52.063Z</time></trkpt><trkpt lat="45.7652199" lon="8.6142278"><ele>263.0</ele><time>2026-04-18T15:29:53.031Z</time></trkpt><trkpt lat="45.765291" lon="8.6142364"><ele>263.0</ele><time>2026-04-18T15:29:54.031Z</time></trkpt><trkpt lat="45.7653621" lon="8.6142471"><ele>263.0</ele><time>2026-04-18T15:29:55.013Z</time></trkpt><trkpt lat="45.7654317" lon="8.6142557"><ele>263.0</ele><time>2026-04-18T15:29:56.029Z</time></trkpt><trkpt lat="45.7654995" lon="8.6142625"><ele>261.2</ele><time>2026-04-18T15:29:57.025Z</time></trkpt><trkpt lat="45.7655645" lon="8.6142691"><ele>259.4</ele><time>2026-04-18T15:29:58.095Z</time></trkpt><trkpt lat="45.7656742" lon="8.6142788"><ele>257.59999999999997</ele><time>2026-04-18T15:30:00.011Z</time></trkpt><trkpt lat="45.7657678" lon="8.6142875"><ele>255.79999999999998</ele><time>2026-04-18T15:30:02.035Z</time></trkpt><trkpt lat="45.7658726" lon="8.6143028"><ele>254.0</ele><time>2026-04-18T15:30:04.14Z</time></trkpt><trkpt lat="45.7659949" lon="8.6143102"><ele>253.42857142857144</ele><time>2026-04-18T15:30:06.029Z</time></trkpt><trkpt lat="45.7660618" lon="8.6143141"><ele>252.85714285714283</ele><time>2026-04-18T15:30:07.016Z</time></trkpt><trkpt lat="45.7661295" lon="8.6143174"><ele>252.28571428571428</ele><time>2026-04-18T15:30:08.039Z</time></trkpt><trkpt lat="45.7661962" lon="8.6143193"><ele>251.71428571428572</ele><time>2026-04-18T15:30:09.034Z</time></trkpt><trkpt lat="45.7662664" lon="8.6143135"><ele>251.14285714285717</ele><time>2026-04-18T15:30:10.07Z</time></trkpt><trkpt lat="45.7663312" lon="8.6142928"><ele>250.57142857142856</ele><time>2026-04-18T15:30:11.016Z</time></trkpt><trkpt lat="45.7663996" lon="8.6142583"><ele>250.0</ele><time>2026-04-18T15:30:12.009Z</time></trkpt><trkpt lat="45.7664694" lon="8.6142063"><ele>249.99999999999997</ele><time>2026-04-18T15:30:13.026Z</time></trkpt><trkpt lat="45.7665375" lon="8.6141417"><ele>250.0</ele><time>2026-04-18T15:30:14.033Z</time></trkpt><trkpt lat="45.7666015" lon="8.6140606"><ele>250.0</ele><time>2026-04-18T15:30:15.012Z</time></trkpt><trkpt lat="45.7666665" lon="8.6139694"><ele>250.0</ele><time>2026-04-18T15:30:16.067Z</time></trkpt><trkpt lat="45.7667283" lon="8.6138801"><ele>249.99999999999997</ele><time>2026-04-18T15:30:17.019Z</time></trkpt><trkpt lat="45.7667909" lon="8.613787"><ele>250.0</ele><time>2026-04-18T15:30:18.018Z</time></trkpt><trkpt lat="45.7668522" lon="8.6137001"><ele>248.6</ele><time>2026-04-18T15:30:19.015Z</time></trkpt><trkpt lat="45.7669131" lon="8.6136176"><ele>247.2</ele><time>2026-04-18T15:30:20.019Z</time></trkpt><trkpt lat="45.7669786" lon="8.6135307"><ele>245.8</ele><time>2026-04-18T15:30:21.037Z</time></trkpt><trkpt lat="45.767046" lon="8.6134389"><ele>244.4</ele><time>2026-04-18T15:30:22.058Z</time></trkpt><trkpt lat="45.7671153" lon="8.6133445"><ele>243.0</ele><time>2026-04-18T15:30:23.028Z</time></trkpt><trkpt lat="45.7671876" lon="8.6132468"><ele>243.0</ele><time>2026-04-18T15:30:24.045Z</time></trkpt><trkpt lat="45.767258" lon="8.6131521"><ele>243.0</ele><time>2026-04-18T15:30:25.036Z</time></trkpt><trkpt lat="45.7673284" lon="8.613055"><ele>243.0</ele><time>2026-04-18T15:30:26.042Z</time></trkpt><trkpt lat="45.7673993" lon="8.6129597"><ele>243.0</ele><time>2026-04-18T15:30:27.018Z</time></trkpt><trkpt lat="45.7674745" lon="8.6128576"><ele>243.0</ele><time>2026-04-18T15:30:28.099Z</time></trkpt><trkpt lat="45.767548" lon="8.6127593"><ele>242.0</ele><time>2026-04-18T15:30:29.019Z</time></trkpt><trkpt lat="45.7676255" lon="8.6126574"><ele>241.0</ele><time>2026-04-18T15:30:30.014Z</time></trkpt><trkpt lat="45.7676997" lon="8.6125563"><ele>240.0</ele><time>2026-04-18T15:30:31.011Z</time></trkpt><trkpt lat="45.7677716" lon="8.6124547"><ele>239.0</ele><time>2026-04-18T15:30:32.014Z</time></trkpt><trkpt lat="45.767842" lon="8.6123592"><ele>238.0</ele><time>2026-04-18T15:30:33.017Z</time></trkpt><trkpt lat="45.7679131" lon="8.6122702"><ele>237.2</ele><time>2026-04-18T15:30:34.052Z</time></trkpt><trkpt lat="45.7679848" lon="8.6121924"><ele>236.4</ele><time>2026-04-18T15:30:35.029Z</time></trkpt><trkpt lat="45.7680603" lon="8.6121185"><ele>235.59999999999997</ele><time>2026-04-18T15:30:36.021Z</time></trkpt><trkpt lat="45.7681403" lon="8.6120516"><ele>234.79999999999998</ele><time>2026-04-18T15:30:37.029Z</time></trkpt><trkpt lat="45.7682232" lon="8.6119953"><ele>234.0</ele><time>2026-04-18T15:30:38.02Z</time></trkpt><trkpt lat="45.7683083" lon="8.6119463"><ele>233.33333333333334</ele><time>2026-04-18T15:30:39.055Z</time></trkpt><trkpt lat="45.7683901" lon="8.6119029"><ele>232.66666666666669</ele><time>2026-04-18T15:30:40.068Z</time></trkpt><trkpt lat="45.7684666" lon="8.6118611"><ele>232.0</ele><time>2026-04-18T15:30:41.109Z</time></trkpt><trkpt lat="45.7685316" lon="8.6118245"><ele>231.33333333333334</ele><time>2026-04-18T15:30:42.042Z</time></trkpt><trkpt lat="45.7686435" lon="8.6117622"><ele>230.66666666666669</ele><time>2026-04-18T15:30:44.02Z</time></trkpt><trkpt lat="45.7687043" lon="8.6117263"><ele>230.0</ele><time>2026-04-18T15:30:45.024Z</time></trkpt><trkpt lat="45.7687672" lon="8.6116828"><ele>229.66666666666669</ele><time>2026-04-18T15:30:46.06Z</time></trkpt><trkpt lat="45.7688332" lon="8.6116395"><ele>229.33333333333334</ele><time>2026-04-18T15:30:47.015Z</time></trkpt><trkpt lat="45.7689038" lon="8.6115973"><ele>229.0</ele><time>2026-04-18T15:30:48.046Z</time></trkpt><trkpt lat="45.7689739" lon="8.6115525"><ele>228.66666666666669</ele><time>2026-04-18T15:30:49.014Z</time></trkpt><trkpt lat="45.7690477" lon="8.6115054"><ele>228.33333333333334</ele><time>2026-04-18T15:30:50.014Z</time></trkpt><trkpt lat="45.76912" lon="8.6114566"><ele>228.0</ele><time>2026-04-18T15:30:51.038Z</time></trkpt><trkpt lat="45.7691885" lon="8.6114094"><ele>228.0</ele><time>2026-04-18T15:30:52.062Z</time></trkpt><trkpt lat="45.769249" lon="8.6113646"><ele>227.99999999999997</ele><time>2026-04-18T15:30:53.027Z</time></trkpt><trkpt lat="45.7693054" lon="8.6113101"><ele>228.0</ele><time>2026-04-18T15:30:54.019Z</time></trkpt><trkpt lat="45.7693622" lon="8.6112471"><ele>228.0</ele><time>2026-04-18T15:30:55.023Z</time></trkpt><trkpt lat="45.7694172" lon="8.6111757"><ele>227.99999999999997</ele><time>2026-04-18T15:30:56.033Z</time></trkpt><trkpt lat="45.7694677" lon="8.6110954"><ele>228.0</ele><time>2026-04-18T15:30:57.022Z</time></trkpt><trkpt lat="45.7695149" lon="8.6110096"><ele>228.0</ele><time>2026-04-18T15:30:58.061Z</time></trkpt><trkpt lat="45.7695565" lon="8.6109256"><ele>227.16666666666666</ele><time>2026-04-18T15:30:59.023Z</time></trkpt><trkpt lat="45.769598" lon="8.6108359"><ele>226.33333333333331</ele><time>2026-04-18T15:31:00.029Z</time></trkpt><trkpt lat="45.7696351" lon="8.6107375"><ele>225.5</ele><time>2026-04-18T15:31:01.014Z</time></trkpt><trkpt lat="45.7696638" lon="8.6106306"><ele>224.66666666666666</ele><time>2026-04-18T15:31:02.012Z</time></trkpt><trkpt lat="45.7696883" lon="8.6105181"><ele>223.83333333333331</ele><time>2026-04-18T15:31:03.021Z</time></trkpt><trkpt lat="45.7697109" lon="8.6104012"><ele>223.0</ele><time>2026-04-18T15:31:04.149Z</time></trkpt><trkpt lat="45.7697468" lon="8.6101903"><ele>222.71428571428572</ele><time>2026-04-18T15:31:06.011Z</time></trkpt><trkpt lat="45.7697641" lon="8.6100874"><ele>222.42857142857142</ele><time>2026-04-18T15:31:07.022Z</time></trkpt><trkpt lat="45.7697782" lon="8.6099869"><ele>222.14285714285717</ele><time>2026-04-18T15:31:08.01Z</time></trkpt><trkpt lat="45.7697921" lon="8.6098849"><ele>221.85714285714286</ele><time>2026-04-18T15:31:09.033Z</time></trkpt><trkpt lat="45.7698043" lon="8.6097868"><ele>221.57142857142858</ele><time>2026-04-18T15:31:10.066Z</time></trkpt><trkpt lat="45.7698202" lon="8.609694"><ele>221.2857142857143</ele><time>2026-04-18T15:31:11.068Z</time></trkpt><trkpt lat="45.7698361" lon="8.6095967"><ele>221.0</ele><time>2026-04-18T15:31:12.026Z</time></trkpt><trkpt lat="45.7698498" lon="8.6094902"><ele>220.66666666666669</ele><time>2026-04-18T15:31:13.046Z</time></trkpt><trkpt lat="45.7698636" lon="8.6093797"><ele>220.33333333333334</ele><time>2026-04-18T15:31:14.024Z</time></trkpt><trkpt lat="45.7698821" lon="8.6092614"><ele>220.0</ele><time>2026-04-18T15:31:15.059Z</time></trkpt><trkpt lat="45.769901" lon="8.6091418"><ele>219.66666666666669</ele><time>2026-04-18T15:31:16.058Z</time></trkpt><trkpt lat="45.7699192" lon="8.6090181"><ele>219.33333333333334</ele><time>2026-04-18T15:31:17.025Z</time></trkpt><trkpt lat="45.7699374" lon="8.608886"><ele>219.0</ele><time>2026-04-18T15:31:18.028Z</time></trkpt><trkpt lat="45.7699589" lon="8.6087515"><ele>219.0</ele><time>2026-04-18T15:31:19.015Z</time></trkpt><trkpt lat="45.7699789" lon="8.6086112"><ele>218.99999999999997</ele><time>2026-04-18T15:31:20.048Z</time></trkpt><trkpt lat="45.7699992" lon="8.6084739"><ele>218.99999999999997</ele><time>2026-04-18T15:31:21.032Z</time></trkpt><trkpt lat="45.7700201" lon="8.608336"><ele>219.0</ele><time>2026-04-18T15:31:22.074Z</time></trkpt><trkpt lat="45.7700393" lon="8.6082073"><ele>219.0</ele><time>2026-04-18T15:31:23.02Z</time></trkpt><trkpt lat="45.7700595" lon="8.6080779"><ele>219.0</ele><time>2026-04-18T15:31:24.018Z</time></trkpt><trkpt lat="45.770079" lon="8.6079498"><ele>219.0</ele><time>2026-04-18T15:31:25.02Z</time></trkpt><trkpt lat="45.7700985" lon="8.6078235"><ele>219.0</ele><time>2026-04-18T15:31:26.026Z</time></trkpt><trkpt lat="45.7701148" lon="8.6077"><ele>219.0</ele><time>2026-04-18T15:31:27.028Z</time></trkpt><trkpt lat="45.7701308" lon="8.6075723"><ele>219.0</ele><time>2026-04-18T15:31:28.086Z</time></trkpt><trkpt lat="45.7701451" lon="8.6074555"><ele>219.0</ele><time>2026-04-18T15:31:29.017Z</time></trkpt><trkpt lat="45.77016" lon="8.6073447"><ele>218.39999999999998</ele><time>2026-04-18T15:31:30.056Z</time></trkpt><trkpt lat="45.7701748" lon="8.6072552"><ele>217.79999999999998</ele><time>2026-04-18T15:31:31.02Z</time></trkpt><trkpt lat="45.7701974" lon="8.6071286"><ele>217.20000000000002</ele><time>2026-04-18T15:31:33.021Z</time></trkpt><trkpt lat="45.7702159" lon="8.6069866"><ele>216.60000000000002</ele><time>2026-04-18T15:31:35.054Z</time></trkpt><trkpt lat="45.7702366" lon="8.6067955"><ele>216.0</ele><time>2026-04-18T15:31:37.021Z</time></trkpt><trkpt lat="45.7702528" lon="8.6066811"><ele>215.0</ele><time>2026-04-18T15:31:38.049Z</time></trkpt><trkpt lat="45.7702688" lon="8.6065585"><ele>214.00000000000003</ele><time>2026-04-18T15:31:39.016Z</time></trkpt><trkpt lat="45.7702859" lon="8.6064191"><ele>213.0</ele><time>2026-04-18T15:31:40.105Z</time></trkpt><trkpt lat="45.7703028" lon="8.6062796"><ele>212.0</ele><time>2026-04-18T15:31:41.012Z</time></trkpt><trkpt lat="45.7703211" lon="8.6061295"><ele>211.0</ele><time>2026-04-18T15:31:42.018Z</time></trkpt><trkpt lat="45.7703399" lon="8.6059778"><ele>210.99999999999997</ele><time>2026-04-18T15:31:43.044Z</time></trkpt><trkpt lat="45.7703582" lon="8.6058303"><ele>211.0</ele><time>2026-04-18T15:31:44.025Z</time></trkpt><trkpt lat="45.7703755" lon="8.6056875"><ele>211.0</ele><time>2026-04-18T15:31:45.054Z</time></trkpt><trkpt lat="45.7703919" lon="8.6055584"><ele>211.0</ele><time>2026-04-18T15:31:46.073Z</time></trkpt><trkpt lat="45.7704082" lon="8.6054446"><ele>210.99999999999997</ele><time>2026-04-18T15:31:47.054Z</time></trkpt><trkpt lat="45.7704234" lon="8.6053457"><ele>211.0</ele><time>2026-04-18T15:31:48.037Z</time></trkpt><trkpt lat="45.7704464" lon="8.6052021"><ele>210.99999999999997</ele><time>2026-04-18T15:31:50.016Z</time></trkpt><trkpt lat="45.7704225" lon="8.6051124"><ele>211.0</ele><time>2026-04-18T15:31:52.048Z</time></trkpt><trkpt lat="45.7703256" lon="8.6050669"><ele>211.0</ele><time>2026-04-18T15:31:54.015Z</time></trkpt><trkpt lat="45.7702543" lon="8.6050493"><ele>211.0</ele><time>2026-04-18T15:31:55.036Z</time></trkpt><trkpt lat="45.770177" lon="8.6050256"><ele>210.99999999999997</ele><time>2026-04-18T15:31:56.016Z</time></trkpt><trkpt lat="45.7700998" lon="8.6049984"><ele>211.0</ele><time>2026-04-18T15:31:57.014Z</time></trkpt><trkpt lat="45.770028" lon="8.6049745"><ele>210.99999999999997</ele><time>2026-04-18T15:31:58.012Z</time></trkpt><trkpt lat="45.7699605" lon="8.6049514"><ele>211.0</ele><time>2026-04-18T15:31:59.017Z</time></trkpt><trkpt lat="45.7698991" lon="8.6049278"><ele>211.0</ele><time>2026-04-18T15:32:00.03Z</time></trkpt><trkpt lat="45.7698131" lon="8.6048871"><ele>211.0</ele><time>2026-04-18T15:32:02.081Z</time></trkpt><trkpt lat="45.7697433" lon="8.6048638"><ele>210.99999999999997</ele><time>2026-04-18T15:32:05.024Z</time></trkpt><trkpt lat="45.7696571" lon="8.6048293"><ele>211.0</ele><time>2026-04-18T15:32:07.018Z</time></trkpt><trkpt lat="45.7695459" lon="8.6047626"><ele>211.0</ele><time>2026-04-18T15:32:09.056Z</time></trkpt><trkpt lat="45.7694818" lon="8.6047314"><ele>211.0</ele><time>2026-04-18T15:32:10.121Z</time></trkpt><trkpt lat="45.7693665" lon="8.6046791"><ele>211.0</ele><time>2026-04-18T15:32:12.037Z</time></trkpt><trkpt lat="45.7692667" lon="8.60463"><ele>211.0</ele><time>2026-04-18T15:32:14.028Z</time></trkpt><trkpt lat="45.7691517" lon="8.6045717"><ele>211.0</ele><time>2026-04-18T15:32:16.056Z</time></trkpt><trkpt lat="45.76909" lon="8.6045383"><ele>210.66666666666666</ele><time>2026-04-18T15:32:17.025Z</time></trkpt><trkpt lat="45.7690267" lon="8.60451"><ele>210.33333333333331</ele><time>2026-04-18T15:32:18.036Z</time></trkpt><trkpt lat="45.7689283" lon="8.604465"><ele>210.0</ele><time>2026-04-18T15:32:20.017Z</time></trkpt><trkpt lat="45.76888" lon="8.6044"><ele>209.66666666666669</ele><time>2026-04-18T15:32:22.058Z</time></trkpt><trkpt lat="45.7688733" lon="8.6042967"><ele>209.33333333333334</ele><time>2026-04-18T15:32:24.019Z</time></trkpt><trkpt lat="45.768875" lon="8.604165"><ele>209.0</ele><time>2026-04-18T15:32:26.02Z</time></trkpt><trkpt lat="45.7688817" lon="8.604015"><ele>209.0</ele><time>2026-04-18T15:32:28.076Z</time></trkpt><trkpt lat="45.76888" lon="8.6038633"><ele>209.0</ele><time>2026-04-18T15:32:30.058Z</time></trkpt><trkpt lat="45.7688617" lon="8.6037183"><ele>209.0</ele><time>2026-04-18T15:32:32.006Z</time></trkpt><trkpt lat="45.7688683" lon="8.6035683"><ele>209.0</ele><time>2026-04-18T15:32:34.024Z</time></trkpt><trkpt lat="45.7688817" lon="8.6034133"><ele>209.0</ele><time>2026-04-18T15:32:36.015Z</time></trkpt><trkpt lat="45.7688983" lon="8.6032517"><ele>209.5</ele><time>2026-04-18T15:32:38.024Z</time></trkpt><trkpt lat="45.7689117" lon="8.6030867"><ele>210.0</ele><time>2026-04-18T15:32:40.067Z</time></trkpt><trkpt lat="45.768915" lon="8.602915"><ele>210.5</ele><time>2026-04-18T15:32:42.062Z</time></trkpt><trkpt lat="45.7689071" lon="8.6027558"><ele>211.0</ele><time>2026-04-18T15:32:44.017Z</time></trkpt><trkpt lat="45.7688947" lon="8.6025838"><ele>210.99999999999997</ele><time>2026-04-18T15:32:46.068Z</time></trkpt><trkpt lat="45.7688818" lon="8.6024912"><ele>211.0</ele><time>2026-04-18T15:32:47.012Z</time></trkpt><trkpt lat="45.7688661" lon="8.6023874"><ele>211.0</ele><time>2026-04-18T15:32:48.058Z</time></trkpt><trkpt lat="45.768848" lon="8.6022829"><ele>211.0</ele><time>2026-04-18T15:32:49.027Z</time></trkpt><trkpt lat="45.7688278" lon="8.6021764"><ele>210.99999999999997</ele><time>2026-04-18T15:32:50.018Z</time></trkpt><trkpt lat="45.7688077" lon="8.6020686"><ele>211.0</ele><time>2026-04-18T15:32:51.02Z</time></trkpt><trkpt lat="45.7687838" lon="8.6019548"><ele>210.66666666666666</ele><time>2026-04-18T15:32:52.064Z</time></trkpt><trkpt lat="45.7687564" lon="8.6018443"><ele>210.33333333333331</ele><time>2026-04-18T15:32:53.01Z</time></trkpt><trkpt lat="45.7687261" lon="8.6017257"><ele>210.0</ele><time>2026-04-18T15:32:54.044Z</time></trkpt><trkpt lat="45.7687" lon="8.6016083"><ele>209.66666666666669</ele><time>2026-04-18T15:32:55.013Z</time></trkpt><trkpt lat="45.768674" lon="8.6014841"><ele>209.33333333333334</ele><time>2026-04-18T15:32:56.018Z</time></trkpt><trkpt lat="45.7686489" lon="8.6013581"><ele>209.0</ele><time>2026-04-18T15:32:57.019Z</time></trkpt><trkpt lat="45.7686258" lon="8.6012319"><ele>209.33333333333334</ele><time>2026-04-18T15:32:58.089Z</time></trkpt><trkpt lat="45.7686076" lon="8.6011156"><ele>209.66666666666669</ele><time>2026-04-18T15:32:59.027Z</time></trkpt><trkpt lat="45.768599" lon="8.6009936"><ele>210.0</ele><time>2026-04-18T15:33:00.028Z</time></trkpt><trkpt lat="45.7686034" lon="8.6008756"><ele>210.33333333333331</ele><time>2026-04-18T15:33:01.026Z</time></trkpt><trkpt lat="45.7686193" lon="8.6007632"><ele>210.66666666666666</ele><time>2026-04-18T15:33:02.028Z</time></trkpt><trkpt lat="45.7686394" lon="8.6006537"><ele>211.0</ele><time>2026-04-18T15:33:03.02Z</time></trkpt><trkpt lat="45.7686589" lon="8.6005433"><ele>210.99999999999997</ele><time>2026-04-18T15:33:04.07Z</time></trkpt><trkpt lat="45.7686783" lon="8.6004339"><ele>211.0</ele><time>2026-04-18T15:33:05.029Z</time></trkpt><trkpt lat="45.7687067" lon="8.6003254"><ele>211.0</ele><time>2026-04-18T15:33:06.032Z</time></trkpt><trkpt lat="45.7687398" lon="8.6002207"><ele>211.0</ele><time>2026-04-18T15:33:07.023Z</time></trkpt><trkpt lat="45.7687737" lon="8.6001193"><ele>210.99999999999997</ele><time>2026-04-18T15:33:08.007Z</time></trkpt><trkpt lat="45.768814" lon="8.6000271"><ele>211.0</ele><time>2026-04-18T15:33:09.025Z</time></trkpt><trkpt lat="45.7688596" lon="8.5999444"><ele>211.16666666666666</ele><time>2026-04-18T15:33:10.065Z</time></trkpt><trkpt lat="45.7689127" lon="8.5998714"><ele>211.33333333333331</ele><time>2026-04-18T15:33:11.014Z</time></trkpt><trkpt lat="45.7689764" lon="8.5997998"><ele>211.5</ele><time>2026-04-18T15:33:12.04Z</time></trkpt><trkpt lat="45.7690398" lon="8.5997372"><ele>211.66666666666669</ele><time>2026-04-18T15:33:13.019Z</time></trkpt><trkpt lat="45.7691084" lon="8.5996836"><ele>211.83333333333334</ele><time>2026-04-18T15:33:14.003Z</time></trkpt><trkpt lat="45.7691776" lon="8.5996307"><ele>212.0</ele><time>2026-04-18T15:33:15.02Z</time></trkpt><trkpt lat="45.7692445" lon="8.5995763"><ele>212.00000000000003</ele><time>2026-04-18T15:33:16.065Z</time></trkpt><trkpt lat="45.7693081" lon="8.5995193"><ele>212.0</ele><time>2026-04-18T15:33:17.018Z</time></trkpt><trkpt lat="45.7693717" lon="8.5994612"><ele>212.0</ele><time>2026-04-18T15:33:18.049Z</time></trkpt><trkpt lat="45.7694307" lon="8.5994095"><ele>212.0</ele><time>2026-04-18T15:33:19.016Z</time></trkpt><trkpt lat="45.7694852" lon="8.5993637"><ele>212.00000000000003</ele><time>2026-04-18T15:33:20.024Z</time></trkpt><trkpt lat="45.7695847" lon="8.5992957"><ele>212.0</ele><time>2026-04-18T15:33:22.064Z</time></trkpt><trkpt lat="45.7696795" lon="8.5992106"><ele>211.42857142857144</ele><time>2026-04-18T15:33:24.02Z</time></trkpt><trkpt lat="45.7697293" lon="8.5991552"><ele>210.85714285714283</ele><time>2026-04-18T15:33:25.015Z</time></trkpt><trkpt lat="45.7697814" lon="8.5991026"><ele>210.28571428571428</ele><time>2026-04-18T15:33:26.022Z</time></trkpt><trkpt lat="45.7698314" lon="8.5990451"><ele>209.71428571428572</ele><time>2026-04-18T15:33:27.012Z</time></trkpt><trkpt lat="45.7698794" lon="8.5989765"><ele>209.14285714285717</ele><time>2026-04-18T15:33:28.049Z</time></trkpt><trkpt lat="45.7699222" lon="8.5989037"><ele>208.57142857142856</ele><time>2026-04-18T15:33:29.025Z</time></trkpt><trkpt lat="45.7699745" lon="8.5987908"><ele>208.0</ele><time>2026-04-18T15:33:31.011Z</time></trkpt><trkpt lat="45.7700011" lon="8.5986975"><ele>208.33333333333331</ele><time>2026-04-18T15:33:37.009Z</time></trkpt><trkpt lat="45.769981" lon="8.5985611"><ele>208.66666666666666</ele><time>2026-04-18T15:33:39.033Z</time></trkpt><trkpt lat="45.7699565" lon="8.5984644"><ele>209.0</ele><time>2026-04-18T15:33:40.068Z</time></trkpt><trkpt lat="45.7699291" lon="8.598364"><ele>209.33333333333331</ele><time>2026-04-18T15:33:41.018Z</time></trkpt><trkpt lat="45.7698959" lon="8.5982527"><ele>209.66666666666666</ele><time>2026-04-18T15:33:42.022Z</time></trkpt><trkpt lat="45.76986" lon="8.5981374"><ele>210.0</ele><time>2026-04-18T15:33:43.017Z</time></trkpt><trkpt lat="45.7698219" lon="8.5980146"><ele>210.0</ele><time>2026-04-18T15:33:44.014Z</time></trkpt><trkpt lat="45.7697837" lon="8.5978854"><ele>210.0</ele><time>2026-04-18T15:33:45.015Z</time></trkpt><trkpt lat="45.7697425" lon="8.5977517"><ele>210.0</ele><time>2026-04-18T15:33:46.064Z</time></trkpt><trkpt lat="45.7697043" lon="8.5976193"><ele>210.0</ele><time>2026-04-18T15:33:47.031Z</time></trkpt><trkpt lat="45.7696619" lon="8.5974826"><ele>210.0</ele><time>2026-04-18T15:33:48.043Z</time></trkpt><trkpt lat="45.7696196" lon="8.5973498"><ele>210.2</ele><time>2026-04-18T15:33:49.027Z</time></trkpt><trkpt lat="45.7695769" lon="8.5972163"><ele>210.4</ele><time>2026-04-18T15:33:50.007Z</time></trkpt><trkpt lat="45.7695347" lon="8.5970786"><ele>210.60000000000002</ele><time>2026-04-18T15:33:51.013Z</time></trkpt><trkpt lat="45.7694899" lon="8.5969379"><ele>210.8</ele><time>2026-04-18T15:33:52.071Z</time></trkpt><trkpt lat="45.7694476" lon="8.5968003"><ele>211.0</ele><time>2026-04-18T15:33:53.018Z</time></trkpt><trkpt lat="45.7694028" lon="8.5966557"><ele>211.0</ele><time>2026-04-18T15:33:54.038Z</time></trkpt><trkpt lat="45.7693622" lon="8.59651"><ele>211.0</ele><time>2026-04-18T15:33:55.018Z</time></trkpt><trkpt lat="45.7693195" lon="8.5963598"><ele>211.0</ele><time>2026-04-18T15:33:56.035Z</time></trkpt><trkpt lat="45.7692763" lon="8.5962149"><ele>211.0</ele><time>2026-04-18T15:33:57.018Z</time></trkpt><trkpt lat="45.7692308" lon="8.5960741"><ele>211.0</ele><time>2026-04-18T15:33:58.075Z</time></trkpt><trkpt lat="45.7691907" lon="8.595949"><ele>210.66666666666666</ele><time>2026-04-18T15:33:59.017Z</time></trkpt><trkpt lat="45.7691491" lon="8.5958287"><ele>210.33333333333331</ele><time>2026-04-18T15:34:00.031Z</time></trkpt><trkpt lat="45.769109" lon="8.5957149"><ele>210.0</ele><time>2026-04-18T15:34:01.015Z</time></trkpt><trkpt lat="45.7690706" lon="8.5956019"><ele>209.66666666666669</ele><time>2026-04-18T15:34:02.068Z</time></trkpt><trkpt lat="45.7690381" lon="8.5955026"><ele>209.33333333333334</ele><time>2026-04-18T15:34:03.016Z</time></trkpt><trkpt lat="45.769006" lon="8.5954127"><ele>209.0</ele><time>2026-04-18T15:34:04.056Z</time></trkpt><trkpt lat="45.7689605" lon="8.5952829"><ele>209.00000000000003</ele><time>2026-04-18T15:34:06.02Z</time></trkpt><trkpt lat="45.7689585" lon="8.5951877"><ele>209.0</ele><time>2026-04-18T15:34:13.019Z</time></trkpt><trkpt lat="45.7690461" lon="8.5951431"><ele>209.0</ele><time>2026-04-18T15:34:15.024Z</time></trkpt><trkpt lat="45.7691134" lon="8.5951236"><ele>209.0</ele><time>2026-04-18T15:34:16.065Z</time></trkpt><trkpt lat="45.76919" lon="8.5950983"><ele>209.00000000000003</ele><time>2026-04-18T15:34:17.026Z</time></trkpt><trkpt lat="45.7692667" lon="8.5950667"><ele>209.0</ele><time>2026-04-18T15:34:18.019Z</time></trkpt><trkpt lat="45.76935" lon="8.59503"><ele>209.0</ele><time>2026-04-18T15:34:19.012Z</time></trkpt><trkpt lat="45.7694383" lon="8.5949917"><ele>209.0</ele><time>2026-04-18T15:34:20.018Z</time></trkpt><trkpt lat="45.76953" lon="8.594945"><ele>209.0</ele><time>2026-04-18T15:34:21.021Z</time></trkpt><trkpt lat="45.769625" lon="8.59489"><ele>209.0</ele><time>2026-04-18T15:34:22.065Z</time></trkpt><trkpt lat="45.7697233" lon="8.5948233"><ele>209.0</ele><time>2026-04-18T15:34:23.023Z</time></trkpt><trkpt lat="45.7698217" lon="8.5947517"><ele>209.0</ele><time>2026-04-18T15:34:24.022Z</time></trkpt><trkpt lat="45.769925" lon="8.5946817"><ele>209.0</ele><time>2026-04-18T15:34:25.033Z</time></trkpt><trkpt lat="45.7700283" lon="8.5946083"><ele>209.0</ele><time>2026-04-18T15:34:26.041Z</time></trkpt><trkpt lat="45.770135" lon="8.5945317"><ele>209.0</ele><time>2026-04-18T15:34:27.017Z</time></trkpt><trkpt lat="45.7702417" lon="8.5944533"><ele>209.25</ele><time>2026-04-18T15:34:28.104Z</time></trkpt><trkpt lat="45.7703483" lon="8.5943783"><ele>209.5</ele><time>2026-04-18T15:34:29.02Z</time></trkpt><trkpt lat="45.7704567" lon="8.594305"><ele>209.75</ele><time>2026-04-18T15:34:30.026Z</time></trkpt><trkpt lat="45.7705667" lon="8.5942383"><ele>210.0</ele><time>2026-04-18T15:34:31.022Z</time></trkpt><trkpt lat="45.7706783" lon="8.5941667"><ele>210.0</ele><time>2026-04-18T15:34:32.021Z</time></trkpt><trkpt lat="45.7707883" lon="8.5940917"><ele>210.0</ele><time>2026-04-18T15:34:33.023Z</time></trkpt><trkpt lat="45.7708983" lon="8.594015"><ele>210.0</ele><time>2026-04-18T15:34:34.097Z</time></trkpt><trkpt lat="45.77101" lon="8.5939383"><ele>210.0</ele><time>2026-04-18T15:34:35.016Z</time></trkpt><trkpt lat="45.77112" lon="8.5938617"><ele>210.0</ele><time>2026-04-18T15:34:36.042Z</time></trkpt><trkpt lat="45.7712317" lon="8.59378"><ele>210.0</ele><time>2026-04-18T15:34:37.025Z</time></trkpt><trkpt lat="45.7713467" lon="8.5937"><ele>210.0</ele><time>2026-04-18T15:34:38.013Z</time></trkpt><trkpt lat="45.7714617" lon="8.59362"><ele>210.0</ele><time>2026-04-18T15:34:39.013Z</time></trkpt><trkpt lat="45.7715767" lon="8.59354"><ele>210.0</ele><time>2026-04-18T15:34:40.062Z</time></trkpt><trkpt lat="45.77169" lon="8.59346"><ele>210.0</ele><time>2026-04-18T15:34:41.017Z</time></trkpt><trkpt lat="45.771805" lon="8.5933817"><ele>210.0</ele><time>2026-04-18T15:34:42.018Z</time></trkpt><trkpt lat="45.7719183" lon="8.5933"><ele>210.0</ele><time>2026-04-18T15:34:43.025Z</time></trkpt><trkpt lat="45.7720333" lon="8.5932233"><ele>209.75</ele><time>2026-04-18T15:34:44.025Z</time></trkpt><trkpt lat="45.77215" lon="8.5931433"><ele>209.5</ele><time>2026-04-18T15:34:45.016Z</time></trkpt><trkpt lat="45.772265" lon="8.593065"><ele>209.25</ele><time>2026-04-18T15:34:46.096Z</time></trkpt><trkpt lat="45.7723817" lon="8.5929867"><ele>209.0</ele><time>2026-04-18T15:34:47.014Z</time></trkpt><trkpt lat="45.7724983" lon="8.5929067"><ele>208.75</ele><time>2026-04-18T15:34:48.021Z</time></trkpt><trkpt lat="45.7726167" lon="8.59283"><ele>208.5</ele><time>2026-04-18T15:34:49.012Z</time></trkpt><trkpt lat="45.7727317" lon="8.59275"><ele>208.25</ele><time>2026-04-18T15:34:50.015Z</time></trkpt><trkpt lat="45.7728467" lon="8.5926667"><ele>208.0</ele><time>2026-04-18T15:34:51.016Z</time></trkpt><trkpt lat="45.7729617" lon="8.592585"><ele>207.75</ele><time>2026-04-18T15:34:52.06Z</time></trkpt><trkpt lat="45.7730767" lon="8.5925017"><ele>207.5</ele><time>2026-04-18T15:34:53.034Z</time></trkpt><trkpt lat="45.7731883" lon="8.5924183"><ele>207.25</ele><time>2026-04-18T15:34:54.006Z</time></trkpt><trkpt lat="45.7732967" lon="8.5923333"><ele>207.0</ele><time>2026-04-18T15:34:55.018Z</time></trkpt><trkpt lat="45.7734033" lon="8.59224"><ele>207.0</ele><time>2026-04-18T15:34:56.019Z</time></trkpt><trkpt lat="45.773505" lon="8.5921383"><ele>207.0</ele><time>2026-04-18T15:34:57.04Z</time></trkpt><trkpt lat="45.7736017" lon="8.5920333"><ele>207.0</ele><time>2026-04-18T15:34:58.085Z</time></trkpt><trkpt lat="45.7736933" lon="8.5919217"><ele>207.0</ele><time>2026-04-18T15:34:59.02Z</time></trkpt><trkpt lat="45.7737817" lon="8.5918067"><ele>207.25</ele><time>2026-04-18T15:35:00.01Z</time></trkpt><trkpt lat="45.7738676" lon="8.5916846"><ele>207.5</ele><time>2026-04-18T15:35:01.021Z</time></trkpt><trkpt lat="45.7739462" lon="8.5915546"><ele>207.75</ele><time>2026-04-18T15:35:02.055Z</time></trkpt><trkpt lat="45.7740183" lon="8.5914225"><ele>208.0</ele><time>2026-04-18T15:35:03.009Z</time></trkpt><trkpt lat="45.7740887" lon="8.5912786"><ele>207.75</ele><time>2026-04-18T15:35:04.072Z</time></trkpt><trkpt lat="45.7741506" lon="8.5911352"><ele>207.5</ele><time>2026-04-18T15:35:05.034Z</time></trkpt><trkpt lat="45.7742098" lon="8.5909855"><ele>207.25</ele><time>2026-04-18T15:35:06.016Z</time></trkpt><trkpt lat="45.7742668" lon="8.5908357"><ele>207.0</ele><time>2026-04-18T15:35:07.034Z</time></trkpt><trkpt lat="45.7743229" lon="8.5906918"><ele>207.6</ele><time>2026-04-18T15:35:08.015Z</time></trkpt><trkpt lat="45.7743769" lon="8.5905487"><ele>208.2</ele><time>2026-04-18T15:35:09.026Z</time></trkpt><trkpt lat="45.7744281" lon="8.5904074"><ele>208.8</ele><time>2026-04-18T15:35:10.067Z</time></trkpt><trkpt lat="45.774476" lon="8.5902757"><ele>209.4</ele><time>2026-04-18T15:35:11.007Z</time></trkpt><trkpt lat="45.7745266" lon="8.5901406"><ele>210.0</ele><time>2026-04-18T15:35:12.049Z</time></trkpt><trkpt lat="45.7745747" lon="8.5900143"><ele>210.0</ele><time>2026-04-18T15:35:13.026Z</time></trkpt><trkpt lat="45.7746236" lon="8.5898885"><ele>210.0</ele><time>2026-04-18T15:35:14.029Z</time></trkpt><trkpt lat="45.7746714" lon="8.5897704"><ele>210.0</ele><time>2026-04-18T15:35:15.041Z</time></trkpt><trkpt lat="45.7747187" lon="8.5896631"><ele>210.0</ele><time>2026-04-18T15:35:16.064Z</time></trkpt><trkpt lat="45.7747661" lon="8.5895652"><ele>210.0</ele><time>2026-04-18T15:35:17.059Z</time></trkpt><trkpt lat="45.7748183" lon="8.5894815"><ele>210.0</ele><time>2026-04-18T15:35:18.016Z</time></trkpt><trkpt lat="45.7748785" lon="8.5894169"><ele>209.66666666666666</ele><time>2026-04-18T15:35:19.029Z</time></trkpt><trkpt lat="45.7749425" lon="8.5893667"><ele>209.33333333333331</ele><time>2026-04-18T15:35:20.018Z</time></trkpt><trkpt lat="45.775009" lon="8.5893134"><ele>209.0</ele><time>2026-04-18T15:35:21.034Z</time></trkpt><trkpt lat="45.7750742" lon="8.5892455"><ele>208.66666666666666</ele><time>2026-04-18T15:35:22.068Z</time></trkpt><trkpt lat="45.7751408" lon="8.5891748"><ele>208.33333333333331</ele><time>2026-04-18T15:35:23.049Z</time></trkpt><trkpt lat="45.7752143" lon="8.5891085"><ele>208.0</ele><time>2026-04-18T15:35:24.011Z</time></trkpt><trkpt lat="45.775299" lon="8.5890454"><ele>209.0</ele><time>2026-04-18T15:35:25.037Z</time></trkpt><trkpt lat="45.7753909" lon="8.5889855"><ele>210.0</ele><time>2026-04-18T15:35:26.133Z</time></trkpt><trkpt lat="45.7755809" lon="8.5888687"><ele>211.0</ele><time>2026-04-18T15:35:28.065Z</time></trkpt><trkpt lat="45.775681" lon="8.588809"><ele>212.0</ele><time>2026-04-18T15:35:29.025Z</time></trkpt><trkpt lat="45.7757861" lon="8.5887484"><ele>212.0</ele><time>2026-04-18T15:35:30.017Z</time></trkpt><trkpt lat="45.7758933" lon="8.5886842"><ele>212.0</ele><time>2026-04-18T15:35:31.018Z</time></trkpt><trkpt lat="45.7760019" lon="8.5886184"><ele>212.0</ele><time>2026-04-18T15:35:32.054Z</time></trkpt><trkpt lat="45.7761075" lon="8.588555"><ele>212.0</ele><time>2026-04-18T15:35:33.026Z</time></trkpt><trkpt lat="45.77622" lon="8.5884901"><ele>213.0</ele><time>2026-04-18T15:35:34.064Z</time></trkpt><trkpt lat="45.776434" lon="8.5883541"><ele>214.0</ele><time>2026-04-18T15:35:36.013Z</time></trkpt><trkpt lat="45.7765424" lon="8.5882879"><ele>215.0</ele><time>2026-04-18T15:35:37.023Z</time></trkpt><trkpt lat="45.7766509" lon="8.5882245"><ele>215.66666666666669</ele><time>2026-04-18T15:35:38.04Z</time></trkpt><trkpt lat="45.7768632" lon="8.5880975"><ele>216.33333333333331</ele><time>2026-04-18T15:35:40.061Z</time></trkpt><trkpt lat="45.7769694" lon="8.5880345"><ele>217.0</ele><time>2026-04-18T15:35:41.038Z</time></trkpt><trkpt lat="45.7770772" lon="8.5879695"><ele>217.0</ele><time>2026-04-18T15:35:42.012Z</time></trkpt><trkpt lat="45.7771886" lon="8.587903"><ele>217.0</ele><time>2026-04-18T15:35:43.091Z</time></trkpt><trkpt lat="45.7772927" lon="8.5878401"><ele>217.0</ele><time>2026-04-18T15:35:44.011Z</time></trkpt><trkpt lat="45.7774027" lon="8.5877751"><ele>217.0</ele><time>2026-04-18T15:35:45.03Z</time></trkpt><trkpt lat="45.7775107" lon="8.5877087"><ele>217.25</ele><time>2026-04-18T15:35:46.069Z</time></trkpt><trkpt lat="45.7776137" lon="8.5876451"><ele>217.5</ele><time>2026-04-18T15:35:47.019Z</time></trkpt><trkpt lat="45.7777179" lon="8.5875805"><ele>217.75</ele><time>2026-04-18T15:35:48.003Z</time></trkpt><trkpt lat="45.7778235" lon="8.5875165"><ele>218.0</ele><time>2026-04-18T15:35:49.017Z</time></trkpt><trkpt lat="45.7779282" lon="8.5874557"><ele>218.2</ele><time>2026-04-18T15:35:50.016Z</time></trkpt><trkpt lat="45.7780312" lon="8.5873925"><ele>218.4</ele><time>2026-04-18T15:35:51.042Z</time></trkpt><trkpt lat="45.7781338" lon="8.5873291"><ele>218.59999999999997</ele><time>2026-04-18T15:35:52.055Z</time></trkpt><trkpt lat="45.7782353" lon="8.5872678"><ele>218.79999999999998</ele><time>2026-04-18T15:35:53.013Z</time></trkpt><trkpt lat="45.778339" lon="8.5872038"><ele>219.0</ele><time>2026-04-18T15:35:54.046Z</time></trkpt><trkpt lat="45.7784403" lon="8.5871441"><ele>219.2</ele><time>2026-04-18T15:35:55.008Z</time></trkpt><trkpt lat="45.7785438" lon="8.5870849"><ele>219.39999999999998</ele><time>2026-04-18T15:35:56.031Z</time></trkpt><trkpt lat="45.7786464" lon="8.5870264"><ele>219.6</ele><time>2026-04-18T15:35:57.018Z</time></trkpt><trkpt lat="45.7787509" lon="8.5869661"><ele>219.8</ele><time>2026-04-18T15:35:58.048Z</time></trkpt><trkpt lat="45.778854" lon="8.586912"><ele>220.0</ele><time>2026-04-18T15:35:59.018Z</time></trkpt><trkpt lat="45.7789634" lon="8.5868645"><ele>220.0</ele><time>2026-04-18T15:36:00.108Z</time></trkpt><trkpt lat="45.779066" lon="8.5868386"><ele>220.0</ele><time>2026-04-18T15:36:01.019Z</time></trkpt><trkpt lat="45.7791759" lon="8.586831"><ele>220.0</ele><time>2026-04-18T15:36:02.017Z</time></trkpt><trkpt lat="45.7792832" lon="8.5868364"><ele>220.0</ele><time>2026-04-18T15:36:03.008Z</time></trkpt><trkpt lat="45.7793928" lon="8.5868533"><ele>220.0</ele><time>2026-04-18T15:36:04.052Z</time></trkpt><trkpt lat="45.7794978" lon="8.5868839"><ele>220.5</ele><time>2026-04-18T15:36:05.014Z</time></trkpt><trkpt lat="45.779604" lon="8.5869363"><ele>221.0</ele><time>2026-04-18T15:36:06.032Z</time></trkpt><trkpt lat="45.7797051" lon="8.5870075"><ele>221.5</ele><time>2026-04-18T15:36:07.015Z</time></trkpt><trkpt lat="45.7798029" lon="8.587095"><ele>222.0</ele><time>2026-04-18T15:36:08.019Z</time></trkpt><trkpt lat="45.7798974" lon="8.5871953"><ele>222.0</ele><time>2026-04-18T15:36:09.016Z</time></trkpt><trkpt lat="45.7799898" lon="8.5873086"><ele>222.0</ele><time>2026-04-18T15:36:10.056Z</time></trkpt><trkpt lat="45.7800766" lon="8.5874255"><ele>222.0</ele><time>2026-04-18T15:36:11.014Z</time></trkpt><trkpt lat="45.7801654" lon="8.5875494"><ele>222.0</ele><time>2026-04-18T15:36:12.031Z</time></trkpt><trkpt lat="45.7802521" lon="8.5876736"><ele>222.25</ele><time>2026-04-18T15:36:13.038Z</time></trkpt><trkpt lat="45.7803379" lon="8.5877971"><ele>222.5</ele><time>2026-04-18T15:36:14.018Z</time></trkpt><trkpt lat="45.7804241" lon="8.5879209"><ele>222.75</ele><time>2026-04-18T15:36:15.043Z</time></trkpt><trkpt lat="45.7805092" lon="8.588044"><ele>223.0</ele><time>2026-04-18T15:36:16.059Z</time></trkpt><trkpt lat="45.780594" lon="8.5881667"><ele>223.0</ele><time>2026-04-18T15:36:17.019Z</time></trkpt><trkpt lat="45.78068" lon="8.588292"><ele>223.0</ele><time>2026-04-18T15:36:18.035Z</time></trkpt><trkpt lat="45.7807648" lon="8.5884132"><ele>223.0</ele><time>2026-04-18T15:36:19.023Z</time></trkpt><trkpt lat="45.7808504" lon="8.5885336"><ele>223.0</ele><time>2026-04-18T15:36:20.022Z</time></trkpt><trkpt lat="45.7809368" lon="8.5886547"><ele>223.25</ele><time>2026-04-18T15:36:21.014Z</time></trkpt><trkpt lat="45.7810261" lon="8.5887795"><ele>223.5</ele><time>2026-04-18T15:36:22.066Z</time></trkpt><trkpt lat="45.7811122" lon="8.5888997"><ele>223.75</ele><time>2026-04-18T15:36:23.012Z</time></trkpt><trkpt lat="45.7812014" lon="8.5890243"><ele>224.0</ele><time>2026-04-18T15:36:24.015Z</time></trkpt><trkpt lat="45.7812904" lon="8.5891499"><ele>224.0</ele><time>2026-04-18T15:36:25.03Z</time></trkpt><trkpt lat="45.7813769" lon="8.5892747"><ele>224.0</ele><time>2026-04-18T15:36:26.02Z</time></trkpt><trkpt lat="45.7814645" lon="8.5894027"><ele>224.0</ele><time>2026-04-18T15:36:27.055Z</time></trkpt><trkpt lat="45.7815503" lon="8.5895271"><ele>224.0</ele><time>2026-04-18T15:36:28.013Z</time></trkpt><trkpt lat="45.7816416" lon="8.5896558"><ele>223.5</ele><time>2026-04-18T15:36:29.027Z</time></trkpt><trkpt lat="45.7817319" lon="8.589784"><ele>223.0</ele><time>2026-04-18T15:36:30.016Z</time></trkpt><trkpt lat="45.7818226" lon="8.5899133"><ele>222.5</ele><time>2026-04-18T15:36:31.028Z</time></trkpt><trkpt lat="45.7819101" lon="8.5900442"><ele>222.0</ele><time>2026-04-18T15:36:32.012Z</time></trkpt><trkpt lat="45.7820015" lon="8.5901748"><ele>222.0</ele><time>2026-04-18T15:36:33.015Z</time></trkpt><trkpt lat="45.7820936" lon="8.5903046"><ele>222.0</ele><time>2026-04-18T15:36:34.02Z</time></trkpt><trkpt lat="45.7821864" lon="8.590433"><ele>222.0</ele><time>2026-04-18T15:36:35.015Z</time></trkpt><trkpt lat="45.7822806" lon="8.590564"><ele>222.0</ele><time>2026-04-18T15:36:36.045Z</time></trkpt><trkpt lat="45.7823698" lon="8.5906926"><ele>222.25</ele><time>2026-04-18T15:36:37.018Z</time></trkpt><trkpt lat="45.7824602" lon="8.5908257"><ele>222.5</ele><time>2026-04-18T15:36:38.018Z</time></trkpt><trkpt lat="45.7825495" lon="8.5909612"><ele>222.75</ele><time>2026-04-18T15:36:39.016Z</time></trkpt><trkpt lat="45.7826409" lon="8.5910965"><ele>223.0</ele><time>2026-04-18T15:36:40.064Z</time></trkpt><trkpt lat="45.7827291" lon="8.5912234"><ele>223.25</ele><time>2026-04-18T15:36:41.017Z</time></trkpt><trkpt lat="45.7828217" lon="8.5913541"><ele>223.5</ele><time>2026-04-18T15:36:42.024Z</time></trkpt><trkpt lat="45.7829121" lon="8.5914836"><ele>223.75</ele><time>2026-04-18T15:36:43.017Z</time></trkpt><trkpt lat="45.7830033" lon="8.5916122"><ele>224.0</ele><time>2026-04-18T15:36:44.014Z</time></trkpt><trkpt lat="45.7830966" lon="8.5917402"><ele>224.0</ele><time>2026-04-18T15:36:45.032Z</time></trkpt><trkpt lat="45.7831909" lon="8.5918636"><ele>224.0</ele><time>2026-04-18T15:36:46.064Z</time></trkpt><trkpt lat="45.7832884" lon="8.5919731"><ele>224.0</ele><time>2026-04-18T15:36:47.032Z</time></trkpt><trkpt lat="45.7833935" lon="8.5920755"><ele>224.0</ele><time>2026-04-18T15:36:48.054Z</time></trkpt><trkpt lat="45.7834967" lon="8.5921684"><ele>223.5</ele><time>2026-04-18T15:36:49.01Z</time></trkpt><trkpt lat="45.7836033" lon="8.5922635"><ele>223.0</ele><time>2026-04-18T15:36:50.015Z</time></trkpt><trkpt lat="45.7837099" lon="8.5923563"><ele>222.5</ele><time>2026-04-18T15:36:51.021Z</time></trkpt><trkpt lat="45.7838151" lon="8.5924503"><ele>222.0</ele><time>2026-04-18T15:36:52.063Z</time></trkpt><trkpt lat="45.7839159" lon="8.5925431"><ele>222.0</ele><time>2026-04-18T15:36:53.017Z</time></trkpt><trkpt lat="45.7840202" lon="8.5926401"><ele>222.0</ele><time>2026-04-18T15:36:54.039Z</time></trkpt><trkpt lat="45.7841212" lon="8.5927343"><ele>222.0</ele><time>2026-04-18T15:36:55.018Z</time></trkpt><trkpt lat="45.7842246" lon="8.5928266"><ele>222.0</ele><time>2026-04-18T15:36:56.013Z</time></trkpt><trkpt lat="45.7843284" lon="8.5929176"><ele>220.75</ele><time>2026-04-18T15:36:57.02Z</time></trkpt><trkpt lat="45.7844322" lon="8.5930094"><ele>219.5</ele><time>2026-04-18T15:36:58.066Z</time></trkpt><trkpt lat="45.7845336" lon="8.5930982"><ele>218.25</ele><time>2026-04-18T15:36:59.014Z</time></trkpt><trkpt lat="45.7846404" lon="8.5931893"><ele>217.0</ele><time>2026-04-18T15:37:00.013Z</time></trkpt><trkpt lat="45.7847459" lon="8.5932796"><ele>217.0</ele><time>2026-04-18T15:37:01.01Z</time></trkpt><trkpt lat="45.7848498" lon="8.5933707"><ele>217.0</ele><time>2026-04-18T15:37:02.026Z</time></trkpt><trkpt lat="45.7849512" lon="8.5934613"><ele>217.0</ele><time>2026-04-18T15:37:03.016Z</time></trkpt><trkpt lat="45.7850543" lon="8.5935539"><ele>217.0</ele><time>2026-04-18T15:37:04.086Z</time></trkpt><trkpt lat="45.7851519" lon="8.5936407"><ele>216.25</ele><time>2026-04-18T15:37:05.016Z</time></trkpt><trkpt lat="45.7852558" lon="8.5937272"><ele>215.5</ele><time>2026-04-18T15:37:06.014Z</time></trkpt><trkpt lat="45.78536" lon="8.5938008"><ele>214.75</ele><time>2026-04-18T15:37:07.016Z</time></trkpt><trkpt lat="45.7854664" lon="8.5938594"><ele>214.0</ele><time>2026-04-18T15:37:08.014Z</time></trkpt><trkpt lat="45.7855721" lon="8.5939041"><ele>213.99999999999997</ele><time>2026-04-18T15:37:09.014Z</time></trkpt><trkpt lat="45.7856759" lon="8.59394"><ele>214.0</ele><time>2026-04-18T15:37:10.075Z</time></trkpt><trkpt lat="45.7857672" lon="8.5939721"><ele>214.0</ele><time>2026-04-18T15:37:11.028Z</time></trkpt><trkpt lat="45.7858534" lon="8.5940036"><ele>214.0</ele><time>2026-04-18T15:37:12.032Z</time></trkpt><trkpt lat="45.7859284" lon="8.5940341"><ele>213.99999999999997</ele><time>2026-04-18T15:37:13.019Z</time></trkpt><trkpt lat="45.7859911" lon="8.5940723"><ele>214.0</ele><time>2026-04-18T15:37:14.029Z</time></trkpt><trkpt lat="45.7860889" lon="8.5941605"><ele>214.0</ele><time>2026-04-18T15:37:16.071Z</time></trkpt><trkpt lat="45.7861767" lon="8.5942188"><ele>213.99999999999997</ele><time>2026-04-18T15:37:18.023Z</time></trkpt><trkpt lat="45.7862655" lon="8.5941835"><ele>213.99999999999997</ele><time>2026-04-18T15:37:20.017Z</time></trkpt><trkpt lat="45.7863115" lon="8.5939626"><ele>214.0</ele><time>2026-04-18T15:37:23.019Z</time></trkpt><trkpt lat="45.7863312" lon="8.5938762"><ele>214.0</ele><time>2026-04-18T15:37:24.015Z</time></trkpt><trkpt lat="45.7863734" lon="8.5937907"><ele>213.99999999999997</ele><time>2026-04-18T15:37:25.043Z</time></trkpt><trkpt lat="45.7864259" lon="8.5937083"><ele>214.0</ele><time>2026-04-18T15:37:26.019Z</time></trkpt><trkpt lat="45.7864822" lon="8.5936203"><ele>214.0</ele><time>2026-04-18T15:37:27.016Z</time></trkpt><trkpt lat="45.7865417" lon="8.5935219"><ele>214.0</ele><time>2026-04-18T15:37:28.081Z</time></trkpt><trkpt lat="45.7866025" lon="8.5934246"><ele>213.99999999999997</ele><time>2026-04-18T15:37:29.017Z</time></trkpt><trkpt lat="45.7866722" lon="8.5933204"><ele>214.0</ele><time>2026-04-18T15:37:30.046Z</time></trkpt><trkpt lat="45.7867422" lon="8.5932199"><ele>214.39999999999998</ele><time>2026-04-18T15:37:31.018Z</time></trkpt><trkpt lat="45.78682" lon="8.5931227"><ele>214.79999999999998</ele><time>2026-04-18T15:37:32.017Z</time></trkpt><trkpt lat="45.7869031" lon="8.5930325"><ele>215.20000000000002</ele><time>2026-04-18T15:37:33.012Z</time></trkpt><trkpt lat="45.7869908" lon="8.5929466"><ele>215.60000000000002</ele><time>2026-04-18T15:37:34.02Z</time></trkpt><trkpt lat="45.7870802" lon="8.5928647"><ele>216.0</ele><time>2026-04-18T15:37:35.016Z</time></trkpt><trkpt lat="45.7871718" lon="8.5927831"><ele>217.20000000000002</ele><time>2026-04-18T15:37:36.036Z</time></trkpt><trkpt lat="45.7872637" lon="8.5927031"><ele>218.40000000000003</ele><time>2026-04-18T15:37:37.014Z</time></trkpt><trkpt lat="45.787356" lon="8.5926195"><ele>219.6</ele><time>2026-04-18T15:37:38.009Z</time></trkpt><trkpt lat="45.7874488" lon="8.5925366"><ele>220.8</ele><time>2026-04-18T15:37:39.016Z</time></trkpt><trkpt lat="45.7875408" lon="8.5924531"><ele>222.0</ele><time>2026-04-18T15:37:40.055Z</time></trkpt><trkpt lat="45.7876304" lon="8.5923729"><ele>221.39999999999998</ele><time>2026-04-18T15:37:41.015Z</time></trkpt><trkpt lat="45.7877213" lon="8.5922897"><ele>220.79999999999998</ele><time>2026-04-18T15:37:42.008Z</time></trkpt><trkpt lat="45.787813" lon="8.5922074"><ele>220.2</ele><time>2026-04-18T15:37:43.011Z</time></trkpt><trkpt lat="45.7879037" lon="8.5921238"><ele>219.6</ele><time>2026-04-18T15:37:44.017Z</time></trkpt><trkpt lat="45.7879949" lon="8.5920421"><ele>219.0</ele><time>2026-04-18T15:37:45.024Z</time></trkpt><trkpt lat="45.7880889" lon="8.59196"><ele>220.0</ele><time>2026-04-18T15:37:46.064Z</time></trkpt><trkpt lat="45.7881774" lon="8.5918787"><ele>220.99999999999997</ele><time>2026-04-18T15:37:47.018Z</time></trkpt><trkpt lat="45.7882704" lon="8.591795"><ele>221.99999999999997</ele><time>2026-04-18T15:37:48.011Z</time></trkpt><trkpt lat="45.788363" lon="8.5917097"><ele>223.0</ele><time>2026-04-18T15:37:49.025Z</time></trkpt><trkpt lat="45.7884516" lon="8.5916221"><ele>224.0</ele><time>2026-04-18T15:37:50.017Z</time></trkpt><trkpt lat="45.7885373" lon="8.5915261"><ele>224.0</ele><time>2026-04-18T15:37:51.043Z</time></trkpt><trkpt lat="45.7886164" lon="8.5914246"><ele>223.99999999999997</ele><time>2026-04-18T15:37:52.058Z</time></trkpt><trkpt lat="45.7886901" lon="8.5913199"><ele>223.99999999999997</ele><time>2026-04-18T15:37:53.016Z</time></trkpt><trkpt lat="45.7887658" lon="8.5912144"><ele>224.0</ele><time>2026-04-18T15:37:54.029Z</time></trkpt><trkpt lat="45.7888398" lon="8.591113"><ele>224.0</ele><time>2026-04-18T15:37:55.016Z</time></trkpt><trkpt lat="45.7889153" lon="8.5910105"><ele>225.2</ele><time>2026-04-18T15:37:56.035Z</time></trkpt><trkpt lat="45.7889903" lon="8.5909084"><ele>226.39999999999998</ele><time>2026-04-18T15:37:57.032Z</time></trkpt><trkpt lat="45.7890674" lon="8.5908033"><ele>227.6</ele><time>2026-04-18T15:37:58.07Z</time></trkpt><trkpt lat="45.7891418" lon="8.5907005"><ele>228.8</ele><time>2026-04-18T15:37:59.02Z</time></trkpt><trkpt lat="45.7892209" lon="8.5905936"><ele>230.0</ele><time>2026-04-18T15:38:00.042Z</time></trkpt><trkpt lat="45.7892973" lon="8.590487"><ele>230.0</ele><time>2026-04-18T15:38:01.012Z</time></trkpt><trkpt lat="45.7893763" lon="8.5903762"><ele>230.0</ele><time>2026-04-18T15:38:02.024Z</time></trkpt><trkpt lat="45.7894547" lon="8.5902664"><ele>230.0</ele><time>2026-04-18T15:38:03.016Z</time></trkpt><trkpt lat="45.7895364" lon="8.5901548"><ele>230.0</ele><time>2026-04-18T15:38:04.02Z</time></trkpt><trkpt lat="45.7896209" lon="8.590043"><ele>230.0</ele><time>2026-04-18T15:38:05.02Z</time></trkpt><trkpt lat="45.7897059" lon="8.5899311"><ele>230.0</ele><time>2026-04-18T15:38:06.019Z</time></trkpt><trkpt lat="45.7897916" lon="8.5898174"><ele>230.0</ele><time>2026-04-18T15:38:07.025Z</time></trkpt><trkpt lat="45.7898787" lon="8.5897042"><ele>230.0</ele><time>2026-04-18T15:38:08.015Z</time></trkpt><trkpt lat="45.7899642" lon="8.5895882"><ele>230.0</ele><time>2026-04-18T15:38:09.001Z</time></trkpt><trkpt lat="45.7900494" lon="8.589466"><ele>229.25</ele><time>2026-04-18T15:38:10.062Z</time></trkpt><trkpt lat="45.7901249" lon="8.5893415"><ele>228.5</ele><time>2026-04-18T15:38:11.019Z</time></trkpt><trkpt lat="45.7901961" lon="8.5892054"><ele>227.75</ele><time>2026-04-18T15:38:12.045Z</time></trkpt><trkpt lat="45.7902604" lon="8.5890714"><ele>227.0</ele><time>2026-04-18T15:38:13.014Z</time></trkpt><trkpt lat="45.7903238" lon="8.588934"><ele>227.0</ele><time>2026-04-18T15:38:14.014Z</time></trkpt><trkpt lat="45.7903839" lon="8.5888013"><ele>227.0</ele><time>2026-04-18T15:38:15.009Z</time></trkpt><trkpt lat="45.7904441" lon="8.5886718"><ele>227.0</ele><time>2026-04-18T15:38:16.062Z</time></trkpt><trkpt lat="45.7904969" lon="8.5885567"><ele>227.0</ele><time>2026-04-18T15:38:17.021Z</time></trkpt><trkpt lat="45.790546" lon="8.588452"><ele>227.0</ele><time>2026-04-18T15:38:18.018Z</time></trkpt><trkpt lat="45.790588" lon="8.5883589"><ele>227.8</ele><time>2026-04-18T15:38:19.018Z</time></trkpt><trkpt lat="45.7906218" lon="8.5882793"><ele>228.6</ele><time>2026-04-18T15:38:20.034Z</time></trkpt><trkpt lat="45.7906735" lon="8.58815"><ele>229.40000000000003</ele><time>2026-04-18T15:38:22.061Z</time></trkpt><trkpt lat="45.7907187" lon="8.5880553"><ele>230.20000000000002</ele><time>2026-04-18T15:38:24.016Z</time></trkpt><trkpt lat="45.7908124" lon="8.5880563"><ele>231.0</ele><time>2026-04-18T15:38:27.022Z</time></trkpt><trkpt lat="45.7908952" lon="8.5881617"><ele>231.0</ele><time>2026-04-18T15:38:29.013Z</time></trkpt><trkpt lat="45.7909489" lon="8.58823"><ele>231.0</ele><time>2026-04-18T15:38:30.023Z</time></trkpt><trkpt lat="45.7910098" lon="8.5883045"><ele>231.0</ele><time>2026-04-18T15:38:31.031Z</time></trkpt><trkpt lat="45.7910691" lon="8.5883792"><ele>231.0</ele><time>2026-04-18T15:38:32.019Z</time></trkpt><trkpt lat="45.7911283" lon="8.5884524"><ele>231.0</ele><time>2026-04-18T15:38:33.035Z</time></trkpt><trkpt lat="45.7911832" lon="8.5885209"><ele>231.0</ele><time>2026-04-18T15:38:34.064Z</time></trkpt><trkpt lat="45.7912354" lon="8.5885874"><ele>230.16666666666666</ele><time>2026-04-18T15:38:35.02Z</time></trkpt><trkpt lat="45.7912876" lon="8.5886508"><ele>229.33333333333331</ele><time>2026-04-18T15:38:36.044Z</time></trkpt><trkpt lat="45.7913688" lon="8.5887499"><ele>228.5</ele><time>2026-04-18T15:38:38.025Z</time></trkpt><trkpt lat="45.7914297" lon="8.5887813"><ele>227.66666666666666</ele><time>2026-04-18T15:38:40.064Z</time></trkpt><trkpt lat="45.791487" lon="8.5887331"><ele>226.83333333333331</ele><time>2026-04-18T15:38:42.014Z</time></trkpt><trkpt lat="45.7915449" lon="8.5886332"><ele>226.0</ele><time>2026-04-18T15:38:44.005Z</time></trkpt><trkpt lat="45.7916083" lon="8.5885167"><ele>226.0</ele><time>2026-04-18T15:38:46.064Z</time></trkpt><trkpt lat="45.7916683" lon="8.5884117"><ele>226.0</ele><time>2026-04-18T15:38:48.053Z</time></trkpt><trkpt lat="45.7917167" lon="8.5883317"><ele>226.0</ele><time>2026-04-18T15:38:50.022Z</time></trkpt><trkpt lat="45.7917383" lon="8.5882233"><ele>226.0</ele><time>2026-04-18T15:39:30.022Z</time></trkpt><trkpt lat="45.7916867" lon="8.5881567"><ele>226.0</ele><time>2026-04-18T15:39:34.063Z</time></trkpt></trkseg></trk></gpx>